<?xml version="1.0" encoding="UTF-8"?>
<gpx xmlns="http://www.topografix.com/GPX/1/1" xmlns:gpsies="http://www.gpsies.com/GPX/1/0" creator="GPSies http://www.gpsies.com - GPSies Track" version="1.1" xmlns:xsi="http://www.w3.org/2001/XMLSchema-instance" xsi:schemaLocation="http://www.topografix.com/GPX/1/1 http://www.topografix.com/GPX/1/1/gpx.xsd http://www.gpsies.com/GPX/1/0 http://www.gpsies.com/gpsies.xsd">
  <metadata>
    <name>GPSies Track</name>
    <link href="http://www.gpsies.com/">
      <text>GPSies Track on GPSies.com</text>
    </link>
    <time>2015-02-09T15:43:02Z</time>
  </metadata>
  <trk>
    <name>GPSies Track on GPSies.com</name>
    <trkseg>
      <trkpt lat="31.94886260" lon="34.96534930">
        <ele>154.00000</ele>
        <time>2010-01-01T00:00:00Z</time>
      </trkpt>
      <trkpt lat="31.94893410" lon="34.96537050">
        <ele>154.00000</ele>
        <time>2010-01-01T00:00:02Z</time>
      </trkpt>
      <trkpt lat="31.94911850" lon="34.96535030">
        <ele>152.00000</ele>
        <time>2010-01-01T00:00:10Z</time>
      </trkpt>
      <trkpt lat="31.94930170" lon="34.96541860">
        <ele>152.00000</ele>
        <time>2010-01-01T00:00:18Z</time>
      </trkpt>
      <trkpt lat="31.94935190" lon="34.96541440">
        <ele>152.00000</ele>
        <time>2010-01-01T00:00:20Z</time>
      </trkpt>
      <trkpt lat="31.94942190" lon="34.96543150">
        <ele>152.00000</ele>
        <time>2010-01-01T00:00:22Z</time>
      </trkpt>
      <trkpt lat="31.94956560" lon="34.96537210">
        <ele>151.00000</ele>
        <time>2010-01-01T00:00:29Z</time>
      </trkpt>
      <trkpt lat="31.94966640" lon="34.96529290">
        <ele>149.00000</ele>
        <time>2010-01-01T00:00:33Z</time>
      </trkpt>
      <trkpt lat="31.94970630" lon="34.96528020">
        <ele>149.00000</ele>
        <time>2010-01-01T00:00:35Z</time>
      </trkpt>
      <trkpt lat="31.94966050" lon="34.96525440">
        <ele>149.00000</ele>
        <time>2010-01-01T00:00:37Z</time>
      </trkpt>
      <trkpt lat="31.94963770" lon="34.96511950">
        <ele>147.00000</ele>
        <time>2010-01-01T00:00:42Z</time>
      </trkpt>
      <trkpt lat="31.94962860" lon="34.96512850">
        <ele>147.00000</ele>
        <time>2010-01-01T00:00:42Z</time>
      </trkpt>
      <trkpt lat="31.94963020" lon="34.96514340">
        <ele>148.00000</ele>
        <time>2010-01-01T00:00:43Z</time>
      </trkpt>
      <trkpt lat="31.94965350" lon="34.96513390">
        <ele>147.00000</ele>
        <time>2010-01-01T00:00:44Z</time>
      </trkpt>
      <trkpt lat="31.94969920" lon="34.96509540">
        <ele>147.00000</ele>
        <time>2010-01-01T00:00:46Z</time>
      </trkpt>
      <trkpt lat="31.94971240" lon="34.96503800">
        <ele>146.00000</ele>
        <time>2010-01-01T00:00:48Z</time>
      </trkpt>
      <trkpt lat="31.94963590" lon="34.96497370">
        <ele>146.00000</ele>
        <time>2010-01-01T00:00:52Z</time>
      </trkpt>
      <trkpt lat="31.94961800" lon="34.96491550">
        <ele>146.00000</ele>
        <time>2010-01-01T00:00:54Z</time>
      </trkpt>
      <trkpt lat="31.94962680" lon="34.96489460">
        <ele>146.00000</ele>
        <time>2010-01-01T00:00:55Z</time>
      </trkpt>
      <trkpt lat="31.94979700" lon="34.96478250">
        <ele>144.00000</ele>
        <time>2010-01-01T00:01:02Z</time>
      </trkpt>
      <trkpt lat="31.94992160" lon="34.96464100">
        <ele>143.00000</ele>
        <time>2010-01-01T00:01:09Z</time>
      </trkpt>
      <trkpt lat="31.95008870" lon="34.96452850">
        <ele>141.00000</ele>
        <time>2010-01-01T00:01:17Z</time>
      </trkpt>
      <trkpt lat="31.95015380" lon="34.96443450">
        <ele>141.00000</ele>
        <time>2010-01-01T00:01:21Z</time>
      </trkpt>
      <trkpt lat="31.95019040" lon="34.96440450">
        <ele>140.00000</ele>
        <time>2010-01-01T00:01:23Z</time>
      </trkpt>
      <trkpt lat="31.95048870" lon="34.96419420">
        <ele>137.00000</ele>
        <time>2010-01-01T00:01:37Z</time>
      </trkpt>
      <trkpt lat="31.95091240" lon="34.96406590">
        <ele>134.00000</ele>
        <time>2010-01-01T00:01:54Z</time>
      </trkpt>
      <trkpt lat="31.95111270" lon="34.96405140">
        <ele>134.00000</ele>
        <time>2010-01-01T00:02:02Z</time>
      </trkpt>
      <trkpt lat="31.95129260" lon="34.96400750">
        <ele>134.00000</ele>
        <time>2010-01-01T00:02:10Z</time>
      </trkpt>
      <trkpt lat="31.95132390" lon="34.96396100">
        <ele>133.00000</ele>
        <time>2010-01-01T00:02:12Z</time>
      </trkpt>
      <trkpt lat="31.95129940" lon="34.96393930">
        <ele>133.00000</ele>
        <time>2010-01-01T00:02:13Z</time>
      </trkpt>
      <trkpt lat="31.95129980" lon="34.96397680">
        <ele>133.00000</ele>
        <time>2010-01-01T00:02:14Z</time>
      </trkpt>
      <trkpt lat="31.95125390" lon="34.96401560">
        <ele>134.00000</ele>
        <time>2010-01-01T00:02:17Z</time>
      </trkpt>
      <trkpt lat="31.95118620" lon="34.96402140">
        <ele>134.00000</ele>
        <time>2010-01-01T00:02:19Z</time>
      </trkpt>
      <trkpt lat="31.95107870" lon="34.96406270">
        <ele>134.00000</ele>
        <time>2010-01-01T00:02:24Z</time>
      </trkpt>
      <trkpt lat="31.95106590" lon="34.96405750">
        <ele>134.00000</ele>
        <time>2010-01-01T00:02:24Z</time>
      </trkpt>
      <trkpt lat="31.95105680" lon="34.96401370">
        <ele>134.00000</ele>
        <time>2010-01-01T00:02:26Z</time>
      </trkpt>
      <trkpt lat="31.95107080" lon="34.96389940">
        <ele>134.00000</ele>
        <time>2010-01-01T00:02:30Z</time>
      </trkpt>
      <trkpt lat="31.95109940" lon="34.96380360">
        <ele>134.00000</ele>
        <time>2010-01-01T00:02:33Z</time>
      </trkpt>
      <trkpt lat="31.95119540" lon="34.96363070">
        <ele>133.00000</ele>
        <time>2010-01-01T00:02:40Z</time>
      </trkpt>
      <trkpt lat="31.95122370" lon="34.96353100">
        <ele>133.00000</ele>
        <time>2010-01-01T00:02:44Z</time>
      </trkpt>
      <trkpt lat="31.95127020" lon="34.96343110">
        <ele>132.00000</ele>
        <time>2010-01-01T00:02:48Z</time>
      </trkpt>
      <trkpt lat="31.95134710" lon="34.96333230">
        <ele>131.00000</ele>
        <time>2010-01-01T00:02:52Z</time>
      </trkpt>
      <trkpt lat="31.95153490" lon="34.96314250">
        <ele>131.00000</ele>
        <time>2010-01-01T00:03:02Z</time>
      </trkpt>
      <trkpt lat="31.95159620" lon="34.96305970">
        <ele>131.00000</ele>
        <time>2010-01-01T00:03:06Z</time>
      </trkpt>
      <trkpt lat="31.95164130" lon="34.96292830">
        <ele>132.00000</ele>
        <time>2010-01-01T00:03:11Z</time>
      </trkpt>
      <trkpt lat="31.95165370" lon="34.96280120">
        <ele>133.00000</ele>
        <time>2010-01-01T00:03:15Z</time>
      </trkpt>
      <trkpt lat="31.95168370" lon="34.96267960">
        <ele>134.00000</ele>
        <time>2010-01-01T00:03:19Z</time>
      </trkpt>
      <trkpt lat="31.95170470" lon="34.96268250">
        <ele>134.00000</ele>
        <time>2010-01-01T00:03:20Z</time>
      </trkpt>
      <trkpt lat="31.95172990" lon="34.96263790">
        <ele>134.00000</ele>
        <time>2010-01-01T00:03:22Z</time>
      </trkpt>
      <trkpt lat="31.95176870" lon="34.96245610">
        <ele>136.00000</ele>
        <time>2010-01-01T00:03:28Z</time>
      </trkpt>
      <trkpt lat="31.95183960" lon="34.96229680">
        <ele>138.00000</ele>
        <time>2010-01-01T00:03:35Z</time>
      </trkpt>
      <trkpt lat="31.95197000" lon="34.96222330">
        <ele>138.00000</ele>
        <time>2010-01-01T00:03:40Z</time>
      </trkpt>
      <trkpt lat="31.95202530" lon="34.96210780">
        <ele>140.00000</ele>
        <time>2010-01-01T00:03:45Z</time>
      </trkpt>
      <trkpt lat="31.95223510" lon="34.96197810">
        <ele>141.00000</ele>
        <time>2010-01-01T00:03:54Z</time>
      </trkpt>
      <trkpt lat="31.95230510" lon="34.96198320">
        <ele>140.00000</ele>
        <time>2010-01-01T00:03:57Z</time>
      </trkpt>
      <trkpt lat="31.95235960" lon="34.96200870">
        <ele>140.00000</ele>
        <time>2010-01-01T00:03:59Z</time>
      </trkpt>
      <trkpt lat="31.95254880" lon="34.96194400">
        <ele>140.00000</ele>
        <time>2010-01-01T00:04:07Z</time>
      </trkpt>
      <trkpt lat="31.95279600" lon="34.96195680">
        <ele>141.00000</ele>
        <time>2010-01-01T00:04:17Z</time>
      </trkpt>
      <trkpt lat="31.95308270" lon="34.96202050">
        <ele>141.00000</ele>
        <time>2010-01-01T00:04:29Z</time>
      </trkpt>
      <trkpt lat="31.95362220" lon="34.96196100">
        <ele>144.00000</ele>
        <time>2010-01-01T00:04:51Z</time>
      </trkpt>
      <trkpt lat="31.95365740" lon="34.96197550">
        <ele>144.00000</ele>
        <time>2010-01-01T00:04:52Z</time>
      </trkpt>
      <trkpt lat="31.95370740" lon="34.96204450">
        <ele>143.00000</ele>
        <time>2010-01-01T00:04:55Z</time>
      </trkpt>
      <trkpt lat="31.95377080" lon="34.96215160">
        <ele>143.00000</ele>
        <time>2010-01-01T00:05:00Z</time>
      </trkpt>
      <trkpt lat="31.95381410" lon="34.96225940">
        <ele>142.00000</ele>
        <time>2010-01-01T00:05:04Z</time>
      </trkpt>
      <trkpt lat="31.95392210" lon="34.96233770">
        <ele>142.00000</ele>
        <time>2010-01-01T00:05:09Z</time>
      </trkpt>
      <trkpt lat="31.95406630" lon="34.96237230">
        <ele>143.00000</ele>
        <time>2010-01-01T00:05:15Z</time>
      </trkpt>
      <trkpt lat="31.95424470" lon="34.96236340">
        <ele>144.00000</ele>
        <time>2010-01-01T00:05:22Z</time>
      </trkpt>
      <trkpt lat="31.95430170" lon="34.96237640">
        <ele>143.00000</ele>
        <time>2010-01-01T00:05:24Z</time>
      </trkpt>
      <trkpt lat="31.95435760" lon="34.96236820">
        <ele>143.00000</ele>
        <time>2010-01-01T00:05:26Z</time>
      </trkpt>
      <trkpt lat="31.95439540" lon="34.96238310">
        <ele>143.00000</ele>
        <time>2010-01-01T00:05:28Z</time>
      </trkpt>
      <trkpt lat="31.95448050" lon="34.96235410">
        <ele>142.00000</ele>
        <time>2010-01-01T00:05:31Z</time>
      </trkpt>
      <trkpt lat="31.95471220" lon="34.96233550">
        <ele>140.00000</ele>
        <time>2010-01-01T00:05:41Z</time>
      </trkpt>
      <trkpt lat="31.95480550" lon="34.96249920">
        <ele>140.00000</ele>
        <time>2010-01-01T00:05:47Z</time>
      </trkpt>
      <trkpt lat="31.95500170" lon="34.96259830">
        <ele>139.00000</ele>
        <time>2010-01-01T00:05:56Z</time>
      </trkpt>
      <trkpt lat="31.95508910" lon="34.96262640">
        <ele>138.00000</ele>
        <time>2010-01-01T00:06:00Z</time>
      </trkpt>
      <trkpt lat="31.95519890" lon="34.96263470">
        <ele>138.00000</ele>
        <time>2010-01-01T00:06:04Z</time>
      </trkpt>
      <trkpt lat="31.95520790" lon="34.96264190">
        <ele>138.00000</ele>
        <time>2010-01-01T00:06:04Z</time>
      </trkpt>
      <trkpt lat="31.95519880" lon="34.96271800">
        <ele>138.00000</ele>
        <time>2010-01-01T00:06:07Z</time>
      </trkpt>
      <trkpt lat="31.95517050" lon="34.96269480">
        <ele>138.00000</ele>
        <time>2010-01-01T00:06:08Z</time>
      </trkpt>
      <trkpt lat="31.95512620" lon="34.96269160">
        <ele>138.00000</ele>
        <time>2010-01-01T00:06:10Z</time>
      </trkpt>
      <trkpt lat="31.95507650" lon="34.96274170">
        <ele>138.00000</ele>
        <time>2010-01-01T00:06:13Z</time>
      </trkpt>
      <trkpt lat="31.95505040" lon="34.96273740">
        <ele>138.00000</ele>
        <time>2010-01-01T00:06:14Z</time>
      </trkpt>
      <trkpt lat="31.95499410" lon="34.96265690">
        <ele>139.00000</ele>
        <time>2010-01-01T00:06:17Z</time>
      </trkpt>
      <trkpt lat="31.95491430" lon="34.96258780">
        <ele>139.00000</ele>
        <time>2010-01-01T00:06:21Z</time>
      </trkpt>
      <trkpt lat="31.95481460" lon="34.96255620">
        <ele>140.00000</ele>
        <time>2010-01-01T00:06:26Z</time>
      </trkpt>
      <trkpt lat="31.95474520" lon="34.96250710">
        <ele>141.00000</ele>
        <time>2010-01-01T00:06:29Z</time>
      </trkpt>
      <trkpt lat="31.95470490" lon="34.96244850">
        <ele>141.00000</ele>
        <time>2010-01-01T00:06:31Z</time>
      </trkpt>
      <trkpt lat="31.95461080" lon="34.96237810">
        <ele>141.00000</ele>
        <time>2010-01-01T00:06:36Z</time>
      </trkpt>
      <trkpt lat="31.95451130" lon="34.96219900">
        <ele>142.00000</ele>
        <time>2010-01-01T00:06:43Z</time>
      </trkpt>
      <trkpt lat="31.95443240" lon="34.96212550">
        <ele>143.00000</ele>
        <time>2010-01-01T00:06:47Z</time>
      </trkpt>
      <trkpt lat="31.95439420" lon="34.96206640">
        <ele>143.00000</ele>
        <time>2010-01-01T00:06:50Z</time>
      </trkpt>
      <trkpt lat="31.95434720" lon="34.96187540">
        <ele>144.00000</ele>
        <time>2010-01-01T00:06:56Z</time>
      </trkpt>
      <trkpt lat="31.95432200" lon="34.96184200">
        <ele>144.00000</ele>
        <time>2010-01-01T00:06:58Z</time>
      </trkpt>
      <trkpt lat="31.95427910" lon="34.96159700">
        <ele>146.00000</ele>
        <time>2010-01-01T00:07:06Z</time>
      </trkpt>
      <trkpt lat="31.95423030" lon="34.96151420">
        <ele>147.00000</ele>
        <time>2010-01-01T00:07:10Z</time>
      </trkpt>
      <trkpt lat="31.95420430" lon="34.96141860">
        <ele>148.00000</ele>
        <time>2010-01-01T00:07:13Z</time>
      </trkpt>
      <trkpt lat="31.95413260" lon="34.96131180">
        <ele>149.00000</ele>
        <time>2010-01-01T00:07:18Z</time>
      </trkpt>
      <trkpt lat="31.95412760" lon="34.96125740">
        <ele>149.00000</ele>
        <time>2010-01-01T00:07:20Z</time>
      </trkpt>
      <trkpt lat="31.95409110" lon="34.96118380">
        <ele>150.00000</ele>
        <time>2010-01-01T00:07:23Z</time>
      </trkpt>
      <trkpt lat="31.95410620" lon="34.96108000">
        <ele>150.00000</ele>
        <time>2010-01-01T00:07:26Z</time>
      </trkpt>
      <trkpt lat="31.95408420" lon="34.96094720">
        <ele>151.00000</ele>
        <time>2010-01-01T00:07:31Z</time>
      </trkpt>
      <trkpt lat="31.95409140" lon="34.96090600">
        <ele>151.00000</ele>
        <time>2010-01-01T00:07:32Z</time>
      </trkpt>
      <trkpt lat="31.95407000" lon="34.96083370">
        <ele>152.00000</ele>
        <time>2010-01-01T00:07:35Z</time>
      </trkpt>
      <trkpt lat="31.95408140" lon="34.96074000">
        <ele>153.00000</ele>
        <time>2010-01-01T00:07:38Z</time>
      </trkpt>
      <trkpt lat="31.95410970" lon="34.96069750">
        <ele>153.00000</ele>
        <time>2010-01-01T00:07:40Z</time>
      </trkpt>
      <trkpt lat="31.95405480" lon="34.96053330">
        <ele>155.00000</ele>
        <time>2010-01-01T00:07:46Z</time>
      </trkpt>
      <trkpt lat="31.95407160" lon="34.96049880">
        <ele>155.00000</ele>
        <time>2010-01-01T00:07:47Z</time>
      </trkpt>
      <trkpt lat="31.95405890" lon="34.96040760">
        <ele>156.00000</ele>
        <time>2010-01-01T00:07:50Z</time>
      </trkpt>
      <trkpt lat="31.95407870" lon="34.96032970">
        <ele>157.00000</ele>
        <time>2010-01-01T00:07:53Z</time>
      </trkpt>
      <trkpt lat="31.95412590" lon="34.96026480">
        <ele>157.00000</ele>
        <time>2010-01-01T00:07:56Z</time>
      </trkpt>
      <trkpt lat="31.95415880" lon="34.96012410">
        <ele>158.00000</ele>
        <time>2010-01-01T00:08:01Z</time>
      </trkpt>
      <trkpt lat="31.95425510" lon="34.96003830">
        <ele>158.00000</ele>
        <time>2010-01-01T00:08:06Z</time>
      </trkpt>
      <trkpt lat="31.95430900" lon="34.95996970">
        <ele>158.00000</ele>
        <time>2010-01-01T00:08:09Z</time>
      </trkpt>
      <trkpt lat="31.95451330" lon="34.95978940">
        <ele>159.00000</ele>
        <time>2010-01-01T00:08:19Z</time>
      </trkpt>
      <trkpt lat="31.95471030" lon="34.95971800">
        <ele>158.00000</ele>
        <time>2010-01-01T00:08:27Z</time>
      </trkpt>
      <trkpt lat="31.95480910" lon="34.95972220">
        <ele>157.00000</ele>
        <time>2010-01-01T00:08:31Z</time>
      </trkpt>
      <trkpt lat="31.95491760" lon="34.95970700">
        <ele>156.00000</ele>
        <time>2010-01-01T00:08:36Z</time>
      </trkpt>
      <trkpt lat="31.95498540" lon="34.95966600">
        <ele>156.00000</ele>
        <time>2010-01-01T00:08:39Z</time>
      </trkpt>
      <trkpt lat="31.95516290" lon="34.95946100">
        <ele>156.00000</ele>
        <time>2010-01-01T00:08:49Z</time>
      </trkpt>
      <trkpt lat="31.95524350" lon="34.95943410">
        <ele>155.00000</ele>
        <time>2010-01-01T00:08:52Z</time>
      </trkpt>
      <trkpt lat="31.95529160" lon="34.95943780">
        <ele>154.00000</ele>
        <time>2010-01-01T00:08:54Z</time>
      </trkpt>
      <trkpt lat="31.95549630" lon="34.95939450">
        <ele>152.00000</ele>
        <time>2010-01-01T00:09:02Z</time>
      </trkpt>
      <trkpt lat="31.95560810" lon="34.95934000">
        <ele>151.00000</ele>
        <time>2010-01-01T00:09:07Z</time>
      </trkpt>
      <trkpt lat="31.95570350" lon="34.95919900">
        <ele>151.00000</ele>
        <time>2010-01-01T00:09:13Z</time>
      </trkpt>
      <trkpt lat="31.95571200" lon="34.95909790">
        <ele>152.00000</ele>
        <time>2010-01-01T00:09:17Z</time>
      </trkpt>
      <trkpt lat="31.95580150" lon="34.95892030">
        <ele>153.00000</ele>
        <time>2010-01-01T00:09:24Z</time>
      </trkpt>
      <trkpt lat="31.95601200" lon="34.95864360">
        <ele>154.00000</ele>
        <time>2010-01-01T00:09:36Z</time>
      </trkpt>
      <trkpt lat="31.95602110" lon="34.95857460">
        <ele>155.00000</ele>
        <time>2010-01-01T00:09:39Z</time>
      </trkpt>
      <trkpt lat="31.95606860" lon="34.95851600">
        <ele>155.00000</ele>
        <time>2010-01-01T00:09:42Z</time>
      </trkpt>
      <trkpt lat="31.95613860" lon="34.95847650">
        <ele>155.00000</ele>
        <time>2010-01-01T00:09:45Z</time>
      </trkpt>
      <trkpt lat="31.95648620" lon="34.95835770">
        <ele>155.00000</ele>
        <time>2010-01-01T00:09:59Z</time>
      </trkpt>
      <trkpt lat="31.95653760" lon="34.95836110">
        <ele>154.00000</ele>
        <time>2010-01-01T00:10:01Z</time>
      </trkpt>
      <trkpt lat="31.95662920" lon="34.95831060">
        <ele>154.00000</ele>
        <time>2010-01-01T00:10:05Z</time>
      </trkpt>
      <trkpt lat="31.95670940" lon="34.95829750">
        <ele>154.00000</ele>
        <time>2010-01-01T00:10:09Z</time>
      </trkpt>
      <trkpt lat="31.95683270" lon="34.95821110">
        <ele>155.00000</ele>
        <time>2010-01-01T00:10:14Z</time>
      </trkpt>
      <trkpt lat="31.95691130" lon="34.95819550">
        <ele>155.00000</ele>
        <time>2010-01-01T00:10:17Z</time>
      </trkpt>
      <trkpt lat="31.95698400" lon="34.95809750">
        <ele>155.00000</ele>
        <time>2010-01-01T00:10:22Z</time>
      </trkpt>
      <trkpt lat="31.95717550" lon="34.95806250">
        <ele>155.00000</ele>
        <time>2010-01-01T00:10:30Z</time>
      </trkpt>
      <trkpt lat="31.95723680" lon="34.95806700">
        <ele>155.00000</ele>
        <time>2010-01-01T00:10:32Z</time>
      </trkpt>
      <trkpt lat="31.95730400" lon="34.95810700">
        <ele>154.00000</ele>
        <time>2010-01-01T00:10:35Z</time>
      </trkpt>
      <trkpt lat="31.95741930" lon="34.95806160">
        <ele>154.00000</ele>
        <time>2010-01-01T00:10:40Z</time>
      </trkpt>
      <trkpt lat="31.95744950" lon="34.95801480">
        <ele>154.00000</ele>
        <time>2010-01-01T00:10:42Z</time>
      </trkpt>
      <trkpt lat="31.95763010" lon="34.95795320">
        <ele>153.00000</ele>
        <time>2010-01-01T00:10:50Z</time>
      </trkpt>
      <trkpt lat="31.95797860" lon="34.95788610">
        <ele>150.00000</ele>
        <time>2010-01-01T00:11:04Z</time>
      </trkpt>
      <trkpt lat="31.95806790" lon="34.95773220">
        <ele>150.00000</ele>
        <time>2010-01-01T00:11:10Z</time>
      </trkpt>
      <trkpt lat="31.95811170" lon="34.95769990">
        <ele>150.00000</ele>
        <time>2010-01-01T00:11:12Z</time>
      </trkpt>
      <trkpt lat="31.95811910" lon="34.95764910">
        <ele>150.00000</ele>
        <time>2010-01-01T00:11:14Z</time>
      </trkpt>
      <trkpt lat="31.95819040" lon="34.95751840">
        <ele>151.00000</ele>
        <time>2010-01-01T00:11:19Z</time>
      </trkpt>
      <trkpt lat="31.95815890" lon="34.95745410">
        <ele>151.00000</ele>
        <time>2010-01-01T00:11:22Z</time>
      </trkpt>
      <trkpt lat="31.95810900" lon="34.95744080">
        <ele>151.00000</ele>
        <time>2010-01-01T00:11:24Z</time>
      </trkpt>
      <trkpt lat="31.95809600" lon="34.95742030">
        <ele>151.00000</ele>
        <time>2010-01-01T00:11:25Z</time>
      </trkpt>
      <trkpt lat="31.95810060" lon="34.95736060">
        <ele>151.00000</ele>
        <time>2010-01-01T00:11:27Z</time>
      </trkpt>
      <trkpt lat="31.95805920" lon="34.95731210">
        <ele>151.00000</ele>
        <time>2010-01-01T00:11:29Z</time>
      </trkpt>
      <trkpt lat="31.95797960" lon="34.95709070">
        <ele>150.00000</ele>
        <time>2010-01-01T00:11:37Z</time>
      </trkpt>
      <trkpt lat="31.95795590" lon="34.95694220">
        <ele>149.00000</ele>
        <time>2010-01-01T00:11:42Z</time>
      </trkpt>
      <trkpt lat="31.95796460" lon="34.95691020">
        <ele>149.00000</ele>
        <time>2010-01-01T00:11:43Z</time>
      </trkpt>
      <trkpt lat="31.95806360" lon="34.95679910">
        <ele>148.00000</ele>
        <time>2010-01-01T00:11:49Z</time>
      </trkpt>
      <trkpt lat="31.95827960" lon="34.95642710">
        <ele>145.00000</ele>
        <time>2010-01-01T00:12:04Z</time>
      </trkpt>
      <trkpt lat="31.95838120" lon="34.95632740">
        <ele>144.00000</ele>
        <time>2010-01-01T00:12:09Z</time>
      </trkpt>
      <trkpt lat="31.95865820" lon="34.95610800">
        <ele>142.00000</ele>
        <time>2010-01-01T00:12:23Z</time>
      </trkpt>
      <trkpt lat="31.95889680" lon="34.95599770">
        <ele>141.00000</ele>
        <time>2010-01-01T00:12:33Z</time>
      </trkpt>
      <trkpt lat="31.95916900" lon="34.95573970">
        <ele>140.00000</ele>
        <time>2010-01-01T00:12:47Z</time>
      </trkpt>
      <trkpt lat="31.95936710" lon="34.95558210">
        <ele>138.00000</ele>
        <time>2010-01-01T00:12:57Z</time>
      </trkpt>
      <trkpt lat="31.95944150" lon="34.95552940">
        <ele>137.00000</ele>
        <time>2010-01-01T00:13:00Z</time>
      </trkpt>
      <trkpt lat="31.95946300" lon="34.95554240">
        <ele>137.00000</ele>
        <time>2010-01-01T00:13:01Z</time>
      </trkpt>
      <trkpt lat="31.95960530" lon="34.95542660">
        <ele>136.00000</ele>
        <time>2010-01-01T00:13:08Z</time>
      </trkpt>
      <trkpt lat="31.95970100" lon="34.95540450">
        <ele>136.00000</ele>
        <time>2010-01-01T00:13:12Z</time>
      </trkpt>
      <trkpt lat="31.95989010" lon="34.95530990">
        <ele>134.00000</ele>
        <time>2010-01-01T00:13:20Z</time>
      </trkpt>
      <trkpt lat="31.95999650" lon="34.95529090">
        <ele>134.00000</ele>
        <time>2010-01-01T00:13:24Z</time>
      </trkpt>
      <trkpt lat="31.96037930" lon="34.95514120">
        <ele>133.00000</ele>
        <time>2010-01-01T00:13:41Z</time>
      </trkpt>
      <trkpt lat="31.96049010" lon="34.95518770">
        <ele>133.00000</ele>
        <time>2010-01-01T00:13:45Z</time>
      </trkpt>
      <trkpt lat="31.96065580" lon="34.95534350">
        <ele>133.00000</ele>
        <time>2010-01-01T00:13:54Z</time>
      </trkpt>
      <trkpt lat="31.96081870" lon="34.95543470">
        <ele>133.00000</ele>
        <time>2010-01-01T00:14:01Z</time>
      </trkpt>
      <trkpt lat="31.96108470" lon="34.95545800">
        <ele>133.00000</ele>
        <time>2010-01-01T00:14:12Z</time>
      </trkpt>
      <trkpt lat="31.96122040" lon="34.95544110">
        <ele>133.00000</ele>
        <time>2010-01-01T00:14:17Z</time>
      </trkpt>
      <trkpt lat="31.96126990" lon="34.95546390">
        <ele>133.00000</ele>
        <time>2010-01-01T00:14:19Z</time>
      </trkpt>
      <trkpt lat="31.96133890" lon="34.95547040">
        <ele>133.00000</ele>
        <time>2010-01-01T00:14:22Z</time>
      </trkpt>
      <trkpt lat="31.96144590" lon="34.95543900">
        <ele>133.00000</ele>
        <time>2010-01-01T00:14:26Z</time>
      </trkpt>
      <trkpt lat="31.96153170" lon="34.95534180">
        <ele>133.00000</ele>
        <time>2010-01-01T00:14:31Z</time>
      </trkpt>
      <trkpt lat="31.96181130" lon="34.95519940">
        <ele>132.00000</ele>
        <time>2010-01-01T00:14:43Z</time>
      </trkpt>
      <trkpt lat="31.96220600" lon="34.95489640">
        <ele>131.00000</ele>
        <time>2010-01-01T00:15:02Z</time>
      </trkpt>
      <trkpt lat="31.96230010" lon="34.95486420">
        <ele>131.00000</ele>
        <time>2010-01-01T00:15:06Z</time>
      </trkpt>
      <trkpt lat="31.96238320" lon="34.95488550">
        <ele>131.00000</ele>
        <time>2010-01-01T00:15:10Z</time>
      </trkpt>
      <trkpt lat="31.96246600" lon="34.95493130">
        <ele>130.00000</ele>
        <time>2010-01-01T00:15:13Z</time>
      </trkpt>
      <trkpt lat="31.96259250" lon="34.95507830">
        <ele>128.00000</ele>
        <time>2010-01-01T00:15:20Z</time>
      </trkpt>
      <trkpt lat="31.96264620" lon="34.95512220">
        <ele>127.00000</ele>
        <time>2010-01-01T00:15:23Z</time>
      </trkpt>
      <trkpt lat="31.96268010" lon="34.95513160">
        <ele>126.00000</ele>
        <time>2010-01-01T00:15:24Z</time>
      </trkpt>
      <trkpt lat="31.96270910" lon="34.95513270">
        <ele>126.00000</ele>
        <time>2010-01-01T00:15:25Z</time>
      </trkpt>
      <trkpt lat="31.96291210" lon="34.95505750">
        <ele>124.00000</ele>
        <time>2010-01-01T00:15:34Z</time>
      </trkpt>
      <trkpt lat="31.96299920" lon="34.95505020">
        <ele>123.00000</ele>
        <time>2010-01-01T00:15:37Z</time>
      </trkpt>
      <trkpt lat="31.96314100" lon="34.95511710">
        <ele>120.00000</ele>
        <time>2010-01-01T00:15:44Z</time>
      </trkpt>
      <trkpt lat="31.96328020" lon="34.95511460">
        <ele>118.00000</ele>
        <time>2010-01-01T00:15:49Z</time>
      </trkpt>
      <trkpt lat="31.96339880" lon="34.95514630">
        <ele>117.00000</ele>
        <time>2010-01-01T00:15:54Z</time>
      </trkpt>
      <trkpt lat="31.96366200" lon="34.95511750">
        <ele>114.00000</ele>
        <time>2010-01-01T00:16:05Z</time>
      </trkpt>
      <trkpt lat="31.96377210" lon="34.95516540">
        <ele>112.00000</ele>
        <time>2010-01-01T00:16:09Z</time>
      </trkpt>
      <trkpt lat="31.96398920" lon="34.95508870">
        <ele>111.00000</ele>
        <time>2010-01-01T00:16:18Z</time>
      </trkpt>
      <trkpt lat="31.96406730" lon="34.95508530">
        <ele>111.00000</ele>
        <time>2010-01-01T00:16:22Z</time>
      </trkpt>
      <trkpt lat="31.96420970" lon="34.95501000">
        <ele>110.00000</ele>
        <time>2010-01-01T00:16:28Z</time>
      </trkpt>
      <trkpt lat="31.96428930" lon="34.95495150">
        <ele>110.00000</ele>
        <time>2010-01-01T00:16:32Z</time>
      </trkpt>
      <trkpt lat="31.96433040" lon="34.95490300">
        <ele>110.00000</ele>
        <time>2010-01-01T00:16:34Z</time>
      </trkpt>
      <trkpt lat="31.96456520" lon="34.95484400">
        <ele>108.00000</ele>
        <time>2010-01-01T00:16:43Z</time>
      </trkpt>
      <trkpt lat="31.96462220" lon="34.95487310">
        <ele>108.00000</ele>
        <time>2010-01-01T00:16:46Z</time>
      </trkpt>
      <trkpt lat="31.96470620" lon="34.95502790">
        <ele>106.00000</ele>
        <time>2010-01-01T00:16:52Z</time>
      </trkpt>
      <trkpt lat="31.96470350" lon="34.95508910">
        <ele>105.00000</ele>
        <time>2010-01-01T00:16:54Z</time>
      </trkpt>
      <trkpt lat="31.96473620" lon="34.95520060">
        <ele>103.00000</ele>
        <time>2010-01-01T00:16:58Z</time>
      </trkpt>
      <trkpt lat="31.96475270" lon="34.95532370">
        <ele>100.00000</ele>
        <time>2010-01-01T00:17:02Z</time>
      </trkpt>
      <trkpt lat="31.96481500" lon="34.95548310">
        <ele>97.000000</ele>
        <time>2010-01-01T00:17:08Z</time>
      </trkpt>
      <trkpt lat="31.96483590" lon="34.95562520">
        <ele>94.000000</ele>
        <time>2010-01-01T00:17:13Z</time>
      </trkpt>
      <trkpt lat="31.96488930" lon="34.95560350">
        <ele>94.000000</ele>
        <time>2010-01-01T00:17:16Z</time>
      </trkpt>
      <trkpt lat="31.96501000" lon="34.95551050">
        <ele>94.000000</ele>
        <time>2010-01-01T00:17:21Z</time>
      </trkpt>
      <trkpt lat="31.96518040" lon="34.95547160">
        <ele>94.000000</ele>
        <time>2010-01-01T00:17:28Z</time>
      </trkpt>
      <trkpt lat="31.96524930" lon="34.95543860">
        <ele>94.000000</ele>
        <time>2010-01-01T00:17:31Z</time>
      </trkpt>
      <trkpt lat="31.96526940" lon="34.95541290">
        <ele>94.000000</ele>
        <time>2010-01-01T00:17:32Z</time>
      </trkpt>
      <trkpt lat="31.96528140" lon="34.95533200">
        <ele>95.000000</ele>
        <time>2010-01-01T00:17:35Z</time>
      </trkpt>
      <trkpt lat="31.96537820" lon="34.95523810">
        <ele>96.000000</ele>
        <time>2010-01-01T00:17:40Z</time>
      </trkpt>
      <trkpt lat="31.96546690" lon="34.95506780">
        <ele>98.000000</ele>
        <time>2010-01-01T00:17:47Z</time>
      </trkpt>
      <trkpt lat="31.96550950" lon="34.95504350">
        <ele>98.000000</ele>
        <time>2010-01-01T00:17:49Z</time>
      </trkpt>
      <trkpt lat="31.96556520" lon="34.95498140">
        <ele>98.000000</ele>
        <time>2010-01-01T00:17:52Z</time>
      </trkpt>
      <trkpt lat="31.96560730" lon="34.95488390">
        <ele>98.000000</ele>
        <time>2010-01-01T00:17:56Z</time>
      </trkpt>
      <trkpt lat="31.96561760" lon="34.95476300">
        <ele>99.000000</ele>
        <time>2010-01-01T00:18:00Z</time>
      </trkpt>
      <trkpt lat="31.96575750" lon="34.95465000">
        <ele>99.000000</ele>
        <time>2010-01-01T00:18:07Z</time>
      </trkpt>
      <trkpt lat="31.96588350" lon="34.95446940">
        <ele>100.00000</ele>
        <time>2010-01-01T00:18:15Z</time>
      </trkpt>
      <trkpt lat="31.96620340" lon="34.95413110">
        <ele>101.00000</ele>
        <time>2010-01-01T00:18:32Z</time>
      </trkpt>
      <trkpt lat="31.96640120" lon="34.95395990">
        <ele>102.00000</ele>
        <time>2010-01-01T00:18:42Z</time>
      </trkpt>
      <trkpt lat="31.96651800" lon="34.95376050">
        <ele>103.00000</ele>
        <time>2010-01-01T00:18:50Z</time>
      </trkpt>
      <trkpt lat="31.96655350" lon="34.95373330">
        <ele>103.00000</ele>
        <time>2010-01-01T00:18:52Z</time>
      </trkpt>
      <trkpt lat="31.96664050" lon="34.95359440">
        <ele>104.00000</ele>
        <time>2010-01-01T00:18:57Z</time>
      </trkpt>
      <trkpt lat="31.96684230" lon="34.95344590">
        <ele>105.00000</ele>
        <time>2010-01-01T00:19:07Z</time>
      </trkpt>
      <trkpt lat="31.96681190" lon="34.95342320">
        <ele>105.00000</ele>
        <time>2010-01-01T00:19:08Z</time>
      </trkpt>
      <trkpt lat="31.96677360" lon="34.95347570">
        <ele>105.00000</ele>
        <time>2010-01-01T00:19:11Z</time>
      </trkpt>
      <trkpt lat="31.96672340" lon="34.95350340">
        <ele>105.00000</ele>
        <time>2010-01-01T00:19:13Z</time>
      </trkpt>
      <trkpt lat="31.96655620" lon="34.95351700">
        <ele>105.00000</ele>
        <time>2010-01-01T00:19:20Z</time>
      </trkpt>
      <trkpt lat="31.96640330" lon="34.95346840">
        <ele>107.00000</ele>
        <time>2010-01-01T00:19:26Z</time>
      </trkpt>
      <trkpt lat="31.96636280" lon="34.95342520">
        <ele>107.00000</ele>
        <time>2010-01-01T00:19:28Z</time>
      </trkpt>
      <trkpt lat="31.96636670" lon="34.95321220">
        <ele>109.00000</ele>
        <time>2010-01-01T00:19:35Z</time>
      </trkpt>
      <trkpt lat="31.96647290" lon="34.95281070">
        <ele>110.00000</ele>
        <time>2010-01-01T00:19:50Z</time>
      </trkpt>
      <trkpt lat="31.96655640" lon="34.95266030">
        <ele>111.00000</ele>
        <time>2010-01-01T00:19:56Z</time>
      </trkpt>
      <trkpt lat="31.96678720" lon="34.95237380">
        <ele>111.00000</ele>
        <time>2010-01-01T00:20:09Z</time>
      </trkpt>
      <trkpt lat="31.96710750" lon="34.95201190">
        <ele>111.00000</ele>
        <time>2010-01-01T00:20:27Z</time>
      </trkpt>
      <trkpt lat="31.96725940" lon="34.95171060">
        <ele>112.00000</ele>
        <time>2010-01-01T00:20:39Z</time>
      </trkpt>
      <trkpt lat="31.96751350" lon="34.95131900">
        <ele>113.00000</ele>
        <time>2010-01-01T00:20:56Z</time>
      </trkpt>
      <trkpt lat="31.96762130" lon="34.95125290">
        <ele>113.00000</ele>
        <time>2010-01-01T00:21:01Z</time>
      </trkpt>
      <trkpt lat="31.96778000" lon="34.95118720">
        <ele>114.00000</ele>
        <time>2010-01-01T00:21:07Z</time>
      </trkpt>
      <trkpt lat="31.96790960" lon="34.95120090">
        <ele>114.00000</ele>
        <time>2010-01-01T00:21:12Z</time>
      </trkpt>
      <trkpt lat="31.96799690" lon="34.95123820">
        <ele>114.00000</ele>
        <time>2010-01-01T00:21:16Z</time>
      </trkpt>
      <trkpt lat="31.96810180" lon="34.95125550">
        <ele>114.00000</ele>
        <time>2010-01-01T00:21:20Z</time>
      </trkpt>
      <trkpt lat="31.96829160" lon="34.95119310">
        <ele>115.00000</ele>
        <time>2010-01-01T00:21:28Z</time>
      </trkpt>
      <trkpt lat="31.96845440" lon="34.95122520">
        <ele>115.00000</ele>
        <time>2010-01-01T00:21:35Z</time>
      </trkpt>
      <trkpt lat="31.96849510" lon="34.95121400">
        <ele>115.00000</ele>
        <time>2010-01-01T00:21:37Z</time>
      </trkpt>
      <trkpt lat="31.96856010" lon="34.95117700">
        <ele>114.00000</ele>
        <time>2010-01-01T00:21:39Z</time>
      </trkpt>
      <trkpt lat="31.96861460" lon="34.95111890">
        <ele>114.00000</ele>
        <time>2010-01-01T00:21:42Z</time>
      </trkpt>
      <trkpt lat="31.96863720" lon="34.95105210">
        <ele>114.00000</ele>
        <time>2010-01-01T00:21:45Z</time>
      </trkpt>
      <trkpt lat="31.96863710" lon="34.95096410">
        <ele>115.00000</ele>
        <time>2010-01-01T00:21:48Z</time>
      </trkpt>
      <trkpt lat="31.96865010" lon="34.95095110">
        <ele>115.00000</ele>
        <time>2010-01-01T00:21:49Z</time>
      </trkpt>
      <trkpt lat="31.96887530" lon="34.95107030">
        <ele>114.00000</ele>
        <time>2010-01-01T00:21:58Z</time>
      </trkpt>
      <trkpt lat="31.96891710" lon="34.95115100">
        <ele>113.00000</ele>
        <time>2010-01-01T00:22:02Z</time>
      </trkpt>
      <trkpt lat="31.96893830" lon="34.95116230">
        <ele>113.00000</ele>
        <time>2010-01-01T00:22:03Z</time>
      </trkpt>
      <trkpt lat="31.96895640" lon="34.95115170">
        <ele>113.00000</ele>
        <time>2010-01-01T00:22:03Z</time>
      </trkpt>
      <trkpt lat="31.96898360" lon="34.95106800">
        <ele>113.00000</ele>
        <time>2010-01-01T00:22:06Z</time>
      </trkpt>
      <trkpt lat="31.96902720" lon="34.95068980">
        <ele>113.00000</ele>
        <time>2010-01-01T00:22:19Z</time>
      </trkpt>
      <trkpt lat="31.96907060" lon="34.95064900">
        <ele>112.00000</ele>
        <time>2010-01-01T00:22:22Z</time>
      </trkpt>
      <trkpt lat="31.96917520" lon="34.95070030">
        <ele>112.00000</ele>
        <time>2010-01-01T00:22:26Z</time>
      </trkpt>
      <trkpt lat="31.96931330" lon="34.95073420">
        <ele>111.00000</ele>
        <time>2010-01-01T00:22:32Z</time>
      </trkpt>
      <trkpt lat="31.96935560" lon="34.95075850">
        <ele>111.00000</ele>
        <time>2010-01-01T00:22:34Z</time>
      </trkpt>
      <trkpt lat="31.96945390" lon="34.95085190">
        <ele>111.00000</ele>
        <time>2010-01-01T00:22:39Z</time>
      </trkpt>
      <trkpt lat="31.96953570" lon="34.95102890">
        <ele>110.00000</ele>
        <time>2010-01-01T00:22:46Z</time>
      </trkpt>
      <trkpt lat="31.96964900" lon="34.95108960">
        <ele>109.00000</ele>
        <time>2010-01-01T00:22:51Z</time>
      </trkpt>
      <trkpt lat="31.96968810" lon="34.95113800">
        <ele>108.00000</ele>
        <time>2010-01-01T00:22:53Z</time>
      </trkpt>
      <trkpt lat="31.96971830" lon="34.95111830">
        <ele>108.00000</ele>
        <time>2010-01-01T00:22:54Z</time>
      </trkpt>
      <trkpt lat="31.96979180" lon="34.95110490">
        <ele>107.00000</ele>
        <time>2010-01-01T00:22:57Z</time>
      </trkpt>
      <trkpt lat="31.96986250" lon="34.95106420">
        <ele>107.00000</ele>
        <time>2010-01-01T00:23:00Z</time>
      </trkpt>
      <trkpt lat="31.96989440" lon="34.95101340">
        <ele>107.00000</ele>
        <time>2010-01-01T00:23:02Z</time>
      </trkpt>
      <trkpt lat="31.96985290" lon="34.95095040">
        <ele>107.00000</ele>
        <time>2010-01-01T00:23:05Z</time>
      </trkpt>
      <trkpt lat="31.96985020" lon="34.95091220">
        <ele>107.00000</ele>
        <time>2010-01-01T00:23:06Z</time>
      </trkpt>
      <trkpt lat="31.96986620" lon="34.95087340">
        <ele>107.00000</ele>
        <time>2010-01-01T00:23:08Z</time>
      </trkpt>
      <trkpt lat="31.96992650" lon="34.95092480">
        <ele>107.00000</ele>
        <time>2010-01-01T00:23:11Z</time>
      </trkpt>
      <trkpt lat="31.97000960" lon="34.95096550">
        <ele>106.00000</ele>
        <time>2010-01-01T00:23:15Z</time>
      </trkpt>
      <trkpt lat="31.97007610" lon="34.95103780">
        <ele>105.00000</ele>
        <time>2010-01-01T00:23:18Z</time>
      </trkpt>
      <trkpt lat="31.97009220" lon="34.95099910">
        <ele>105.00000</ele>
        <time>2010-01-01T00:23:20Z</time>
      </trkpt>
      <trkpt lat="31.97009100" lon="34.95094710">
        <ele>105.00000</ele>
        <time>2010-01-01T00:23:21Z</time>
      </trkpt>
      <trkpt lat="31.97008450" lon="34.95096270">
        <ele>105.00000</ele>
        <time>2010-01-01T00:23:22Z</time>
      </trkpt>
      <trkpt lat="31.96996640" lon="34.95091910">
        <ele>106.00000</ele>
        <time>2010-01-01T00:23:27Z</time>
      </trkpt>
      <trkpt lat="31.96981910" lon="34.95064510">
        <ele>106.00000</ele>
        <time>2010-01-01T00:23:38Z</time>
      </trkpt>
      <trkpt lat="31.96957350" lon="34.95037520">
        <ele>107.00000</ele>
        <time>2010-01-01T00:23:51Z</time>
      </trkpt>
      <trkpt lat="31.96947010" lon="34.95016720">
        <ele>106.00000</ele>
        <time>2010-01-01T00:24:00Z</time>
      </trkpt>
      <trkpt lat="31.96942420" lon="34.95012690">
        <ele>106.00000</ele>
        <time>2010-01-01T00:24:02Z</time>
      </trkpt>
      <trkpt lat="31.96937640" lon="34.94989080">
        <ele>105.00000</ele>
        <time>2010-01-01T00:24:10Z</time>
      </trkpt>
      <trkpt lat="31.96931530" lon="34.94975780">
        <ele>105.00000</ele>
        <time>2010-01-01T00:24:15Z</time>
      </trkpt>
      <trkpt lat="31.96931850" lon="34.94958660">
        <ele>105.00000</ele>
        <time>2010-01-01T00:24:21Z</time>
      </trkpt>
      <trkpt lat="31.96923520" lon="34.94921490">
        <ele>104.00000</ele>
        <time>2010-01-01T00:24:34Z</time>
      </trkpt>
      <trkpt lat="31.96919040" lon="34.94915680">
        <ele>104.00000</ele>
        <time>2010-01-01T00:24:37Z</time>
      </trkpt>
      <trkpt lat="31.96913760" lon="34.94911940">
        <ele>104.00000</ele>
        <time>2010-01-01T00:24:39Z</time>
      </trkpt>
      <trkpt lat="31.96898840" lon="34.94913890">
        <ele>104.00000</ele>
        <time>2010-01-01T00:24:45Z</time>
      </trkpt>
      <trkpt lat="31.96883240" lon="34.94918820">
        <ele>104.00000</ele>
        <time>2010-01-01T00:24:52Z</time>
      </trkpt>
      <trkpt lat="31.96875430" lon="34.94925890">
        <ele>104.00000</ele>
        <time>2010-01-01T00:24:56Z</time>
      </trkpt>
      <trkpt lat="31.96851490" lon="34.94938310">
        <ele>105.00000</ele>
        <time>2010-01-01T00:25:06Z</time>
      </trkpt>
      <trkpt lat="31.96829940" lon="34.94943810">
        <ele>106.00000</ele>
        <time>2010-01-01T00:25:15Z</time>
      </trkpt>
      <trkpt lat="31.96822100" lon="34.94944020">
        <ele>106.00000</ele>
        <time>2010-01-01T00:25:18Z</time>
      </trkpt>
      <trkpt lat="31.96793310" lon="34.94951790">
        <ele>106.00000</ele>
        <time>2010-01-01T00:25:30Z</time>
      </trkpt>
      <trkpt lat="31.96771140" lon="34.94963960">
        <ele>108.00000</ele>
        <time>2010-01-01T00:25:40Z</time>
      </trkpt>
      <trkpt lat="31.96764360" lon="34.94965100">
        <ele>108.00000</ele>
        <time>2010-01-01T00:25:42Z</time>
      </trkpt>
      <trkpt lat="31.96755040" lon="34.94964110">
        <ele>108.00000</ele>
        <time>2010-01-01T00:25:46Z</time>
      </trkpt>
      <trkpt lat="31.96736090" lon="34.94969290">
        <ele>109.00000</ele>
        <time>2010-01-01T00:25:54Z</time>
      </trkpt>
      <trkpt lat="31.96710040" lon="34.94972710">
        <ele>110.00000</ele>
        <time>2010-01-01T00:26:04Z</time>
      </trkpt>
      <trkpt lat="31.96699140" lon="34.94972380">
        <ele>110.00000</ele>
        <time>2010-01-01T00:26:09Z</time>
      </trkpt>
      <trkpt lat="31.96691730" lon="34.94970530">
        <ele>110.00000</ele>
        <time>2010-01-01T00:26:12Z</time>
      </trkpt>
      <trkpt lat="31.96683360" lon="34.94971590">
        <ele>111.00000</ele>
        <time>2010-01-01T00:26:15Z</time>
      </trkpt>
      <trkpt lat="31.96644240" lon="34.94968680">
        <ele>113.00000</ele>
        <time>2010-01-01T00:26:31Z</time>
      </trkpt>
      <trkpt lat="31.96638510" lon="34.94966470">
        <ele>113.00000</ele>
        <time>2010-01-01T00:26:33Z</time>
      </trkpt>
      <trkpt lat="31.96634320" lon="34.94961350">
        <ele>113.00000</ele>
        <time>2010-01-01T00:26:36Z</time>
      </trkpt>
      <trkpt lat="31.96623500" lon="34.94955540">
        <ele>113.00000</ele>
        <time>2010-01-01T00:26:41Z</time>
      </trkpt>
      <trkpt lat="31.96627980" lon="34.94965000">
        <ele>113.00000</ele>
        <time>2010-01-01T00:26:44Z</time>
      </trkpt>
      <trkpt lat="31.96628530" lon="34.94970380">
        <ele>114.00000</ele>
        <time>2010-01-01T00:26:46Z</time>
      </trkpt>
      <trkpt lat="31.96627040" lon="34.94978010">
        <ele>114.00000</ele>
        <time>2010-01-01T00:26:49Z</time>
      </trkpt>
      <trkpt lat="31.96614680" lon="34.94969380">
        <ele>115.00000</ele>
        <time>2010-01-01T00:26:54Z</time>
      </trkpt>
      <trkpt lat="31.96605700" lon="34.94965770">
        <ele>115.00000</ele>
        <time>2010-01-01T00:26:58Z</time>
      </trkpt>
      <trkpt lat="31.96587030" lon="34.94953730">
        <ele>116.00000</ele>
        <time>2010-01-01T00:27:07Z</time>
      </trkpt>
      <trkpt lat="31.96583620" lon="34.94953140">
        <ele>116.00000</ele>
        <time>2010-01-01T00:27:08Z</time>
      </trkpt>
      <trkpt lat="31.96560250" lon="34.94928820">
        <ele>115.00000</ele>
        <time>2010-01-01T00:27:21Z</time>
      </trkpt>
      <trkpt lat="31.96545610" lon="34.94924390">
        <ele>115.00000</ele>
        <time>2010-01-01T00:27:27Z</time>
      </trkpt>
      <trkpt lat="31.96532550" lon="34.94912260">
        <ele>114.00000</ele>
        <time>2010-01-01T00:27:33Z</time>
      </trkpt>
      <trkpt lat="31.96509900" lon="34.94915990">
        <ele>114.00000</ele>
        <time>2010-01-01T00:27:42Z</time>
      </trkpt>
      <trkpt lat="31.96491490" lon="34.94932620">
        <ele>115.00000</ele>
        <time>2010-01-01T00:27:52Z</time>
      </trkpt>
      <trkpt lat="31.96488880" lon="34.94936790">
        <ele>116.00000</ele>
        <time>2010-01-01T00:27:54Z</time>
      </trkpt>
      <trkpt lat="31.96464610" lon="34.94950120">
        <ele>117.00000</ele>
        <time>2010-01-01T00:28:04Z</time>
      </trkpt>
      <trkpt lat="31.96456820" lon="34.94951700">
        <ele>117.00000</ele>
        <time>2010-01-01T00:28:07Z</time>
      </trkpt>
      <trkpt lat="31.96447470" lon="34.94950440">
        <ele>116.00000</ele>
        <time>2010-01-01T00:28:11Z</time>
      </trkpt>
      <trkpt lat="31.96433080" lon="34.94953240">
        <ele>116.00000</ele>
        <time>2010-01-01T00:28:17Z</time>
      </trkpt>
      <trkpt lat="31.96422530" lon="34.94959040">
        <ele>117.00000</ele>
        <time>2010-01-01T00:28:22Z</time>
      </trkpt>
      <trkpt lat="31.96405800" lon="34.94960960">
        <ele>117.00000</ele>
        <time>2010-01-01T00:28:28Z</time>
      </trkpt>
      <trkpt lat="31.96381110" lon="34.94956430">
        <ele>116.00000</ele>
        <time>2010-01-01T00:28:38Z</time>
      </trkpt>
      <trkpt lat="31.96358930" lon="34.94948100">
        <ele>114.00000</ele>
        <time>2010-01-01T00:28:48Z</time>
      </trkpt>
      <trkpt lat="31.96348120" lon="34.94949180">
        <ele>114.00000</ele>
        <time>2010-01-01T00:28:52Z</time>
      </trkpt>
      <trkpt lat="31.96344920" lon="34.94947840">
        <ele>114.00000</ele>
        <time>2010-01-01T00:28:53Z</time>
      </trkpt>
      <trkpt lat="31.96343320" lon="34.94944890">
        <ele>113.00000</ele>
        <time>2010-01-01T00:28:55Z</time>
      </trkpt>
      <trkpt lat="31.96346940" lon="34.94940140">
        <ele>112.00000</ele>
        <time>2010-01-01T00:28:57Z</time>
      </trkpt>
      <trkpt lat="31.96351300" lon="34.94942160">
        <ele>113.00000</ele>
        <time>2010-01-01T00:28:59Z</time>
      </trkpt>
      <trkpt lat="31.96358540" lon="34.94942510">
        <ele>113.00000</ele>
        <time>2010-01-01T00:29:02Z</time>
      </trkpt>
      <trkpt lat="31.96386660" lon="34.94934940">
        <ele>112.00000</ele>
        <time>2010-01-01T00:29:13Z</time>
      </trkpt>
      <trkpt lat="31.96397520" lon="34.94930500">
        <ele>111.00000</ele>
        <time>2010-01-01T00:29:18Z</time>
      </trkpt>
      <trkpt lat="31.96400130" lon="34.94928340">
        <ele>110.00000</ele>
        <time>2010-01-01T00:29:19Z</time>
      </trkpt>
      <trkpt lat="31.96400350" lon="34.94923010">
        <ele>109.00000</ele>
        <time>2010-01-01T00:29:21Z</time>
      </trkpt>
      <trkpt lat="31.96396230" lon="34.94919150">
        <ele>108.00000</ele>
        <time>2010-01-01T00:29:23Z</time>
      </trkpt>
      <trkpt lat="31.96391500" lon="34.94918840">
        <ele>108.00000</ele>
        <time>2010-01-01T00:29:25Z</time>
      </trkpt>
      <trkpt lat="31.96384560" lon="34.94921690">
        <ele>109.00000</ele>
        <time>2010-01-01T00:29:28Z</time>
      </trkpt>
      <trkpt lat="31.96358550" lon="34.94919190">
        <ele>108.00000</ele>
        <time>2010-01-01T00:29:38Z</time>
      </trkpt>
      <trkpt lat="31.96326390" lon="34.94909440">
        <ele>106.00000</ele>
        <time>2010-01-01T00:29:51Z</time>
      </trkpt>
      <trkpt lat="31.96300240" lon="34.94905620">
        <ele>105.00000</ele>
        <time>2010-01-01T00:30:02Z</time>
      </trkpt>
      <trkpt lat="31.96277800" lon="34.94907330">
        <ele>105.00000</ele>
        <time>2010-01-01T00:30:11Z</time>
      </trkpt>
      <trkpt lat="31.96257550" lon="34.94914000">
        <ele>105.00000</ele>
        <time>2010-01-01T00:30:19Z</time>
      </trkpt>
      <trkpt lat="31.96240390" lon="34.94923970">
        <ele>106.00000</ele>
        <time>2010-01-01T00:30:27Z</time>
      </trkpt>
      <trkpt lat="31.96213420" lon="34.94924170">
        <ele>106.00000</ele>
        <time>2010-01-01T00:30:38Z</time>
      </trkpt>
      <trkpt lat="31.96202870" lon="34.94917880">
        <ele>105.00000</ele>
        <time>2010-01-01T00:30:43Z</time>
      </trkpt>
      <trkpt lat="31.96192860" lon="34.94908500">
        <ele>105.00000</ele>
        <time>2010-01-01T00:30:48Z</time>
      </trkpt>
      <trkpt lat="31.96188090" lon="34.94896360">
        <ele>106.00000</ele>
        <time>2010-01-01T00:30:52Z</time>
      </trkpt>
      <trkpt lat="31.96188980" lon="34.94889040">
        <ele>106.00000</ele>
        <time>2010-01-01T00:30:55Z</time>
      </trkpt>
      <trkpt lat="31.96198230" lon="34.94875200">
        <ele>106.00000</ele>
        <time>2010-01-01T00:31:01Z</time>
      </trkpt>
      <trkpt lat="31.96222220" lon="34.94851140">
        <ele>105.00000</ele>
        <time>2010-01-01T00:31:13Z</time>
      </trkpt>
      <trkpt lat="31.96232940" lon="34.94833060">
        <ele>104.00000</ele>
        <time>2010-01-01T00:31:21Z</time>
      </trkpt>
      <trkpt lat="31.96234800" lon="34.94827300">
        <ele>104.00000</ele>
        <time>2010-01-01T00:31:23Z</time>
      </trkpt>
      <trkpt lat="31.96225840" lon="34.94830680">
        <ele>105.00000</ele>
        <time>2010-01-01T00:31:27Z</time>
      </trkpt>
      <trkpt lat="31.96222100" lon="34.94828200">
        <ele>105.00000</ele>
        <time>2010-01-01T00:31:28Z</time>
      </trkpt>
      <trkpt lat="31.96224560" lon="34.94819510">
        <ele>105.00000</ele>
        <time>2010-01-01T00:31:32Z</time>
      </trkpt>
      <trkpt lat="31.96227570" lon="34.94815280">
        <ele>105.00000</ele>
        <time>2010-01-01T00:31:33Z</time>
      </trkpt>
      <trkpt lat="31.96237750" lon="34.94806580">
        <ele>105.00000</ele>
        <time>2010-01-01T00:31:38Z</time>
      </trkpt>
      <trkpt lat="31.96241740" lon="34.94799750">
        <ele>105.00000</ele>
        <time>2010-01-01T00:31:41Z</time>
      </trkpt>
      <trkpt lat="31.96261780" lon="34.94785970">
        <ele>104.00000</ele>
        <time>2010-01-01T00:31:51Z</time>
      </trkpt>
      <trkpt lat="31.96277310" lon="34.94766970">
        <ele>104.00000</ele>
        <time>2010-01-01T00:32:00Z</time>
      </trkpt>
      <trkpt lat="31.96279760" lon="34.94756690">
        <ele>104.00000</ele>
        <time>2010-01-01T00:32:03Z</time>
      </trkpt>
      <trkpt lat="31.96279070" lon="34.94743910">
        <ele>104.00000</ele>
        <time>2010-01-01T00:32:08Z</time>
      </trkpt>
      <trkpt lat="31.96277130" lon="34.94736190">
        <ele>104.00000</ele>
        <time>2010-01-01T00:32:10Z</time>
      </trkpt>
      <trkpt lat="31.96269450" lon="34.94722260">
        <ele>104.00000</ele>
        <time>2010-01-01T00:32:16Z</time>
      </trkpt>
      <trkpt lat="31.96264740" lon="34.94720270">
        <ele>104.00000</ele>
        <time>2010-01-01T00:32:18Z</time>
      </trkpt>
      <trkpt lat="31.96253760" lon="34.94709840">
        <ele>104.00000</ele>
        <time>2010-01-01T00:32:24Z</time>
      </trkpt>
      <trkpt lat="31.96237690" lon="34.94707300">
        <ele>104.00000</ele>
        <time>2010-01-01T00:32:30Z</time>
      </trkpt>
      <trkpt lat="31.96224460" lon="34.94702740">
        <ele>103.00000</ele>
        <time>2010-01-01T00:32:36Z</time>
      </trkpt>
      <trkpt lat="31.96213340" lon="34.94695530">
        <ele>102.00000</ele>
        <time>2010-01-01T00:32:41Z</time>
      </trkpt>
      <trkpt lat="31.96196240" lon="34.94697310">
        <ele>102.00000</ele>
        <time>2010-01-01T00:32:48Z</time>
      </trkpt>
      <trkpt lat="31.96178900" lon="34.94715920">
        <ele>104.00000</ele>
        <time>2010-01-01T00:32:57Z</time>
      </trkpt>
      <trkpt lat="31.96153860" lon="34.94723640">
        <ele>104.00000</ele>
        <time>2010-01-01T00:33:07Z</time>
      </trkpt>
      <trkpt lat="31.96133330" lon="34.94732090">
        <ele>103.00000</ele>
        <time>2010-01-01T00:33:16Z</time>
      </trkpt>
      <trkpt lat="31.96123080" lon="34.94733260">
        <ele>102.00000</ele>
        <time>2010-01-01T00:33:20Z</time>
      </trkpt>
      <trkpt lat="31.96112730" lon="34.94737800">
        <ele>102.00000</ele>
        <time>2010-01-01T00:33:25Z</time>
      </trkpt>
      <trkpt lat="31.96092580" lon="34.94742010">
        <ele>100.00000</ele>
        <time>2010-01-01T00:33:33Z</time>
      </trkpt>
      <trkpt lat="31.96090790" lon="34.94749720">
        <ele>101.00000</ele>
        <time>2010-01-01T00:33:35Z</time>
      </trkpt>
      <trkpt lat="31.96080770" lon="34.94768260">
        <ele>101.00000</ele>
        <time>2010-01-01T00:33:43Z</time>
      </trkpt>
      <trkpt lat="31.96063640" lon="34.94778410">
        <ele>102.00000</ele>
        <time>2010-01-01T00:33:51Z</time>
      </trkpt>
      <trkpt lat="31.96053010" lon="34.94786530">
        <ele>102.00000</ele>
        <time>2010-01-01T00:33:56Z</time>
      </trkpt>
      <trkpt lat="31.96047130" lon="34.94789080">
        <ele>102.00000</ele>
        <time>2010-01-01T00:33:58Z</time>
      </trkpt>
      <trkpt lat="31.96040610" lon="34.94789700">
        <ele>102.00000</ele>
        <time>2010-01-01T00:34:01Z</time>
      </trkpt>
      <trkpt lat="31.96034620" lon="34.94788180">
        <ele>101.00000</ele>
        <time>2010-01-01T00:34:03Z</time>
      </trkpt>
      <trkpt lat="31.96016810" lon="34.94775970">
        <ele>100.00000</ele>
        <time>2010-01-01T00:34:11Z</time>
      </trkpt>
      <trkpt lat="31.96014650" lon="34.94772610">
        <ele>100.00000</ele>
        <time>2010-01-01T00:34:13Z</time>
      </trkpt>
      <trkpt lat="31.96014280" lon="34.94762330">
        <ele>100.00000</ele>
        <time>2010-01-01T00:34:16Z</time>
      </trkpt>
      <trkpt lat="31.96005130" lon="34.94733610">
        <ele>99.000000</ele>
        <time>2010-01-01T00:34:27Z</time>
      </trkpt>
      <trkpt lat="31.96000490" lon="34.94726470">
        <ele>99.000000</ele>
        <time>2010-01-01T00:34:30Z</time>
      </trkpt>
      <trkpt lat="31.95987440" lon="34.94715650">
        <ele>101.00000</ele>
        <time>2010-01-01T00:34:36Z</time>
      </trkpt>
      <trkpt lat="31.95980080" lon="34.94700430">
        <ele>102.00000</ele>
        <time>2010-01-01T00:34:42Z</time>
      </trkpt>
      <trkpt lat="31.95972430" lon="34.94689420">
        <ele>103.00000</ele>
        <time>2010-01-01T00:34:47Z</time>
      </trkpt>
      <trkpt lat="31.95971840" lon="34.94675290">
        <ele>103.00000</ele>
        <time>2010-01-01T00:34:52Z</time>
      </trkpt>
      <trkpt lat="31.95967570" lon="34.94657760">
        <ele>103.00000</ele>
        <time>2010-01-01T00:34:58Z</time>
      </trkpt>
      <trkpt lat="31.95960510" lon="34.94638700">
        <ele>104.00000</ele>
        <time>2010-01-01T00:35:05Z</time>
      </trkpt>
      <trkpt lat="31.95953940" lon="34.94627690">
        <ele>104.00000</ele>
        <time>2010-01-01T00:35:10Z</time>
      </trkpt>
      <trkpt lat="31.95952670" lon="34.94622520">
        <ele>105.00000</ele>
        <time>2010-01-01T00:35:11Z</time>
      </trkpt>
      <trkpt lat="31.95952610" lon="34.94607570">
        <ele>105.00000</ele>
        <time>2010-01-01T00:35:17Z</time>
      </trkpt>
      <trkpt lat="31.95957160" lon="34.94592090">
        <ele>104.00000</ele>
        <time>2010-01-01T00:35:22Z</time>
      </trkpt>
      <trkpt lat="31.95970090" lon="34.94570790">
        <ele>105.00000</ele>
        <time>2010-01-01T00:35:31Z</time>
      </trkpt>
      <trkpt lat="31.95973720" lon="34.94568950">
        <ele>105.00000</ele>
        <time>2010-01-01T00:35:33Z</time>
      </trkpt>
      <trkpt lat="31.95993070" lon="34.94550940">
        <ele>106.00000</ele>
        <time>2010-01-01T00:35:42Z</time>
      </trkpt>
      <trkpt lat="31.96007970" lon="34.94532320">
        <ele>108.00000</ele>
        <time>2010-01-01T00:35:51Z</time>
      </trkpt>
      <trkpt lat="31.96013820" lon="34.94527150">
        <ele>109.00000</ele>
        <time>2010-01-01T00:35:54Z</time>
      </trkpt>
      <trkpt lat="31.96021300" lon="34.94523390">
        <ele>108.00000</ele>
        <time>2010-01-01T00:35:57Z</time>
      </trkpt>
      <trkpt lat="31.96034780" lon="34.94509900">
        <ele>109.00000</ele>
        <time>2010-01-01T00:36:04Z</time>
      </trkpt>
      <trkpt lat="31.96038460" lon="34.94509920">
        <ele>109.00000</ele>
        <time>2010-01-01T00:36:06Z</time>
      </trkpt>
      <trkpt lat="31.96042800" lon="34.94507860">
        <ele>109.00000</ele>
        <time>2010-01-01T00:36:08Z</time>
      </trkpt>
      <trkpt lat="31.96047010" lon="34.94503550">
        <ele>109.00000</ele>
        <time>2010-01-01T00:36:10Z</time>
      </trkpt>
      <trkpt lat="31.96056790" lon="34.94497800">
        <ele>108.00000</ele>
        <time>2010-01-01T00:36:14Z</time>
      </trkpt>
      <trkpt lat="31.96067780" lon="34.94488030">
        <ele>108.00000</ele>
        <time>2010-01-01T00:36:20Z</time>
      </trkpt>
      <trkpt lat="31.96072030" lon="34.94481520">
        <ele>109.00000</ele>
        <time>2010-01-01T00:36:23Z</time>
      </trkpt>
      <trkpt lat="31.96083590" lon="34.94469350">
        <ele>109.00000</ele>
        <time>2010-01-01T00:36:29Z</time>
      </trkpt>
      <trkpt lat="31.96086160" lon="34.94464820">
        <ele>109.00000</ele>
        <time>2010-01-01T00:36:31Z</time>
      </trkpt>
      <trkpt lat="31.96087290" lon="34.94456180">
        <ele>110.00000</ele>
        <time>2010-01-01T00:36:34Z</time>
      </trkpt>
      <trkpt lat="31.96099330" lon="34.94421270">
        <ele>113.00000</ele>
        <time>2010-01-01T00:36:46Z</time>
      </trkpt>
      <trkpt lat="31.96099420" lon="34.94417150">
        <ele>113.00000</ele>
        <time>2010-01-01T00:36:48Z</time>
      </trkpt>
      <trkpt lat="31.96071490" lon="34.94393170">
        <ele>115.00000</ele>
        <time>2010-01-01T00:37:02Z</time>
      </trkpt>
      <trkpt lat="31.96047990" lon="34.94363790">
        <ele>114.00000</ele>
        <time>2010-01-01T00:37:15Z</time>
      </trkpt>
      <trkpt lat="31.96037020" lon="34.94357000">
        <ele>114.00000</ele>
        <time>2010-01-01T00:37:20Z</time>
      </trkpt>
      <trkpt lat="31.96032200" lon="34.94356200">
        <ele>114.00000</ele>
        <time>2010-01-01T00:37:22Z</time>
      </trkpt>
      <trkpt lat="31.96016850" lon="34.94359500">
        <ele>115.00000</ele>
        <time>2010-01-01T00:37:29Z</time>
      </trkpt>
      <trkpt lat="31.96010580" lon="34.94365510">
        <ele>116.00000</ele>
        <time>2010-01-01T00:37:32Z</time>
      </trkpt>
      <trkpt lat="31.96002620" lon="34.94365520">
        <ele>116.00000</ele>
        <time>2010-01-01T00:37:35Z</time>
      </trkpt>
      <trkpt lat="31.95998340" lon="34.94371410">
        <ele>117.00000</ele>
        <time>2010-01-01T00:37:38Z</time>
      </trkpt>
      <trkpt lat="31.95973690" lon="34.94387780">
        <ele>119.00000</ele>
        <time>2010-01-01T00:37:49Z</time>
      </trkpt>
      <trkpt lat="31.95967430" lon="34.94399610">
        <ele>121.00000</ele>
        <time>2010-01-01T00:37:54Z</time>
      </trkpt>
      <trkpt lat="31.95962840" lon="34.94402830">
        <ele>121.00000</ele>
        <time>2010-01-01T00:37:56Z</time>
      </trkpt>
      <trkpt lat="31.95958260" lon="34.94403840">
        <ele>121.00000</ele>
        <time>2010-01-01T00:37:58Z</time>
      </trkpt>
      <trkpt lat="31.95954650" lon="34.94409040">
        <ele>122.00000</ele>
        <time>2010-01-01T00:38:00Z</time>
      </trkpt>
      <trkpt lat="31.95949800" lon="34.94411610">
        <ele>122.00000</ele>
        <time>2010-01-01T00:38:02Z</time>
      </trkpt>
      <trkpt lat="31.95936370" lon="34.94410720">
        <ele>122.00000</ele>
        <time>2010-01-01T00:38:08Z</time>
      </trkpt>
      <trkpt lat="31.95933050" lon="34.94407670">
        <ele>122.00000</ele>
        <time>2010-01-01T00:38:09Z</time>
      </trkpt>
      <trkpt lat="31.95918510" lon="34.94404140">
        <ele>122.00000</ele>
        <time>2010-01-01T00:38:15Z</time>
      </trkpt>
      <trkpt lat="31.95914600" lon="34.94400260">
        <ele>121.00000</ele>
        <time>2010-01-01T00:38:17Z</time>
      </trkpt>
      <trkpt lat="31.95915160" lon="34.94396610">
        <ele>121.00000</ele>
        <time>2010-01-01T00:38:18Z</time>
      </trkpt>
      <trkpt lat="31.95930020" lon="34.94385790">
        <ele>120.00000</ele>
        <time>2010-01-01T00:38:25Z</time>
      </trkpt>
      <trkpt lat="31.95939300" lon="34.94374110">
        <ele>118.00000</ele>
        <time>2010-01-01T00:38:31Z</time>
      </trkpt>
      <trkpt lat="31.95939030" lon="34.94366760">
        <ele>117.00000</ele>
        <time>2010-01-01T00:38:33Z</time>
      </trkpt>
      <trkpt lat="31.95936500" lon="34.94365740">
        <ele>117.00000</ele>
        <time>2010-01-01T00:38:34Z</time>
      </trkpt>
      <trkpt lat="31.95922030" lon="34.94366920">
        <ele>118.00000</ele>
        <time>2010-01-01T00:38:40Z</time>
      </trkpt>
      <trkpt lat="31.95906150" lon="34.94362060">
        <ele>117.00000</ele>
        <time>2010-01-01T00:38:47Z</time>
      </trkpt>
      <trkpt lat="31.95900960" lon="34.94358090">
        <ele>117.00000</ele>
        <time>2010-01-01T00:38:49Z</time>
      </trkpt>
      <trkpt lat="31.95895070" lon="34.94356220">
        <ele>117.00000</ele>
        <time>2010-01-01T00:38:52Z</time>
      </trkpt>
      <trkpt lat="31.95878740" lon="34.94356770">
        <ele>118.00000</ele>
        <time>2010-01-01T00:38:58Z</time>
      </trkpt>
      <trkpt lat="31.95868900" lon="34.94360220">
        <ele>118.00000</ele>
        <time>2010-01-01T00:39:02Z</time>
      </trkpt>
      <trkpt lat="31.95863320" lon="34.94358670">
        <ele>118.00000</ele>
        <time>2010-01-01T00:39:05Z</time>
      </trkpt>
      <trkpt lat="31.95850810" lon="34.94360420">
        <ele>119.00000</ele>
        <time>2010-01-01T00:39:10Z</time>
      </trkpt>
      <trkpt lat="31.95845030" lon="34.94365020">
        <ele>120.00000</ele>
        <time>2010-01-01T00:39:13Z</time>
      </trkpt>
      <trkpt lat="31.95837520" lon="34.94374670">
        <ele>121.00000</ele>
        <time>2010-01-01T00:39:17Z</time>
      </trkpt>
      <trkpt lat="31.95827910" lon="34.94382210">
        <ele>121.00000</ele>
        <time>2010-01-01T00:39:22Z</time>
      </trkpt>
      <trkpt lat="31.95808170" lon="34.94391420">
        <ele>121.00000</ele>
        <time>2010-01-01T00:39:30Z</time>
      </trkpt>
      <trkpt lat="31.95800040" lon="34.94399760">
        <ele>121.00000</ele>
        <time>2010-01-01T00:39:34Z</time>
      </trkpt>
      <trkpt lat="31.95791660" lon="34.94405750">
        <ele>121.00000</ele>
        <time>2010-01-01T00:39:38Z</time>
      </trkpt>
      <trkpt lat="31.95785030" lon="34.94408240">
        <ele>121.00000</ele>
        <time>2010-01-01T00:39:41Z</time>
      </trkpt>
      <trkpt lat="31.95777650" lon="34.94417230">
        <ele>122.00000</ele>
        <time>2010-01-01T00:39:45Z</time>
      </trkpt>
      <trkpt lat="31.95772000" lon="34.94426880">
        <ele>121.00000</ele>
        <time>2010-01-01T00:39:49Z</time>
      </trkpt>
      <trkpt lat="31.95755610" lon="34.94441390">
        <ele>121.00000</ele>
        <time>2010-01-01T00:39:58Z</time>
      </trkpt>
      <trkpt lat="31.95746550" lon="34.94455140">
        <ele>121.00000</ele>
        <time>2010-01-01T00:40:03Z</time>
      </trkpt>
      <trkpt lat="31.95740730" lon="34.94471460">
        <ele>121.00000</ele>
        <time>2010-01-01T00:40:09Z</time>
      </trkpt>
      <trkpt lat="31.95732410" lon="34.94485000">
        <ele>121.00000</ele>
        <time>2010-01-01T00:40:15Z</time>
      </trkpt>
      <trkpt lat="31.95728930" lon="34.94488290">
        <ele>121.00000</ele>
        <time>2010-01-01T00:40:17Z</time>
      </trkpt>
      <trkpt lat="31.95727350" lon="34.94493190">
        <ele>121.00000</ele>
        <time>2010-01-01T00:40:19Z</time>
      </trkpt>
      <trkpt lat="31.95726860" lon="34.94508700">
        <ele>121.00000</ele>
        <time>2010-01-01T00:40:24Z</time>
      </trkpt>
      <trkpt lat="31.95717310" lon="34.94531420">
        <ele>120.00000</ele>
        <time>2010-01-01T00:40:33Z</time>
      </trkpt>
      <trkpt lat="31.95716600" lon="34.94534310">
        <ele>120.00000</ele>
        <time>2010-01-01T00:40:34Z</time>
      </trkpt>
      <trkpt lat="31.95719070" lon="34.94538600">
        <ele>120.00000</ele>
        <time>2010-01-01T00:40:35Z</time>
      </trkpt>
      <trkpt lat="31.95721030" lon="34.94537790">
        <ele>120.00000</ele>
        <time>2010-01-01T00:40:36Z</time>
      </trkpt>
      <trkpt lat="31.95726510" lon="34.94540730">
        <ele>120.00000</ele>
        <time>2010-01-01T00:40:39Z</time>
      </trkpt>
      <trkpt lat="31.95737120" lon="34.94542040">
        <ele>120.00000</ele>
        <time>2010-01-01T00:40:43Z</time>
      </trkpt>
      <trkpt lat="31.95737610" lon="34.94544090">
        <ele>120.00000</ele>
        <time>2010-01-01T00:40:44Z</time>
      </trkpt>
      <trkpt lat="31.95743910" lon="34.94547410">
        <ele>120.00000</ele>
        <time>2010-01-01T00:40:46Z</time>
      </trkpt>
      <trkpt lat="31.95745800" lon="34.94552630">
        <ele>119.00000</ele>
        <time>2010-01-01T00:40:48Z</time>
      </trkpt>
      <trkpt lat="31.95746100" lon="34.94569920">
        <ele>119.00000</ele>
        <time>2010-01-01T00:40:54Z</time>
      </trkpt>
      <trkpt lat="31.95740020" lon="34.94589750">
        <ele>118.00000</ele>
        <time>2010-01-01T00:41:01Z</time>
      </trkpt>
      <trkpt lat="31.95737130" lon="34.94594620">
        <ele>118.00000</ele>
        <time>2010-01-01T00:41:03Z</time>
      </trkpt>
      <trkpt lat="31.95730490" lon="34.94603020">
        <ele>118.00000</ele>
        <time>2010-01-01T00:41:07Z</time>
      </trkpt>
      <trkpt lat="31.95709430" lon="34.94611580">
        <ele>119.00000</ele>
        <time>2010-01-01T00:41:16Z</time>
      </trkpt>
      <trkpt lat="31.95701240" lon="34.94621440">
        <ele>120.00000</ele>
        <time>2010-01-01T00:41:21Z</time>
      </trkpt>
      <trkpt lat="31.95692490" lon="34.94626870">
        <ele>120.00000</ele>
        <time>2010-01-01T00:41:25Z</time>
      </trkpt>
      <trkpt lat="31.95680930" lon="34.94628860">
        <ele>121.00000</ele>
        <time>2010-01-01T00:41:29Z</time>
      </trkpt>
      <trkpt lat="31.95665350" lon="34.94627500">
        <ele>122.00000</ele>
        <time>2010-01-01T00:41:36Z</time>
      </trkpt>
      <trkpt lat="31.95655690" lon="34.94643260">
        <ele>122.00000</ele>
        <time>2010-01-01T00:41:42Z</time>
      </trkpt>
      <trkpt lat="31.95628850" lon="34.94662270">
        <ele>124.00000</ele>
        <time>2010-01-01T00:41:55Z</time>
      </trkpt>
      <trkpt lat="31.95621840" lon="34.94670480">
        <ele>124.00000</ele>
        <time>2010-01-01T00:41:59Z</time>
      </trkpt>
      <trkpt lat="31.95609590" lon="34.94679670">
        <ele>126.00000</ele>
        <time>2010-01-01T00:42:05Z</time>
      </trkpt>
      <trkpt lat="31.95608220" lon="34.94687190">
        <ele>126.00000</ele>
        <time>2010-01-01T00:42:07Z</time>
      </trkpt>
      <trkpt lat="31.95616400" lon="34.94699300">
        <ele>127.00000</ele>
        <time>2010-01-01T00:42:13Z</time>
      </trkpt>
      <trkpt lat="31.95624220" lon="34.94715340">
        <ele>129.00000</ele>
        <time>2010-01-01T00:42:19Z</time>
      </trkpt>
      <trkpt lat="31.95625110" lon="34.94721480">
        <ele>129.00000</ele>
        <time>2010-01-01T00:42:21Z</time>
      </trkpt>
      <trkpt lat="31.95635010" lon="34.94728440">
        <ele>130.00000</ele>
        <time>2010-01-01T00:42:26Z</time>
      </trkpt>
      <trkpt lat="31.95640930" lon="34.94729270">
        <ele>129.00000</ele>
        <time>2010-01-01T00:42:28Z</time>
      </trkpt>
      <trkpt lat="31.95646960" lon="34.94727100">
        <ele>129.00000</ele>
        <time>2010-01-01T00:42:30Z</time>
      </trkpt>
      <trkpt lat="31.95654470" lon="34.94728270">
        <ele>129.00000</ele>
        <time>2010-01-01T00:42:33Z</time>
      </trkpt>
      <trkpt lat="31.95658590" lon="34.94730600">
        <ele>129.00000</ele>
        <time>2010-01-01T00:42:35Z</time>
      </trkpt>
      <trkpt lat="31.95679030" lon="34.94727120">
        <ele>127.00000</ele>
        <time>2010-01-01T00:42:44Z</time>
      </trkpt>
      <trkpt lat="31.95685340" lon="34.94728720">
        <ele>127.00000</ele>
        <time>2010-01-01T00:42:46Z</time>
      </trkpt>
      <trkpt lat="31.95695700" lon="34.94728480">
        <ele>127.00000</ele>
        <time>2010-01-01T00:42:50Z</time>
      </trkpt>
      <trkpt lat="31.95706730" lon="34.94734170">
        <ele>127.00000</ele>
        <time>2010-01-01T00:42:55Z</time>
      </trkpt>
      <trkpt lat="31.95719850" lon="34.94734580">
        <ele>126.00000</ele>
        <time>2010-01-01T00:43:00Z</time>
      </trkpt>
      <trkpt lat="31.95740860" lon="34.94739030">
        <ele>126.00000</ele>
        <time>2010-01-01T00:43:09Z</time>
      </trkpt>
      <trkpt lat="31.95748900" lon="34.94738680">
        <ele>126.00000</ele>
        <time>2010-01-01T00:43:12Z</time>
      </trkpt>
      <trkpt lat="31.95758450" lon="34.94744230">
        <ele>126.00000</ele>
        <time>2010-01-01T00:43:16Z</time>
      </trkpt>
      <trkpt lat="31.95764120" lon="34.94744070">
        <ele>126.00000</ele>
        <time>2010-01-01T00:43:19Z</time>
      </trkpt>
      <trkpt lat="31.95767230" lon="34.94745540">
        <ele>126.00000</ele>
        <time>2010-01-01T00:43:20Z</time>
      </trkpt>
      <trkpt lat="31.95768270" lon="34.94748410">
        <ele>126.00000</ele>
        <time>2010-01-01T00:43:21Z</time>
      </trkpt>
      <trkpt lat="31.95767030" lon="34.94757860">
        <ele>127.00000</ele>
        <time>2010-01-01T00:43:24Z</time>
      </trkpt>
      <trkpt lat="31.95764760" lon="34.94760120">
        <ele>127.00000</ele>
        <time>2010-01-01T00:43:26Z</time>
      </trkpt>
      <trkpt lat="31.95761940" lon="34.94767590">
        <ele>128.00000</ele>
        <time>2010-01-01T00:43:28Z</time>
      </trkpt>
      <trkpt lat="31.95747060" lon="34.94777840">
        <ele>129.00000</ele>
        <time>2010-01-01T00:43:35Z</time>
      </trkpt>
      <trkpt lat="31.95741390" lon="34.94784470">
        <ele>130.00000</ele>
        <time>2010-01-01T00:43:38Z</time>
      </trkpt>
      <trkpt lat="31.95736780" lon="34.94784890">
        <ele>130.00000</ele>
        <time>2010-01-01T00:43:40Z</time>
      </trkpt>
      <trkpt lat="31.95737640" lon="34.94786370">
        <ele>131.00000</ele>
        <time>2010-01-01T00:43:41Z</time>
      </trkpt>
      <trkpt lat="31.95734790" lon="34.94786820">
        <ele>131.00000</ele>
        <time>2010-01-01T00:43:42Z</time>
      </trkpt>
      <trkpt lat="31.95745810" lon="34.94790960">
        <ele>131.00000</ele>
        <time>2010-01-01T00:43:47Z</time>
      </trkpt>
      <trkpt lat="31.95744970" lon="34.94797470">
        <ele>131.00000</ele>
        <time>2010-01-01T00:43:49Z</time>
      </trkpt>
      <trkpt lat="31.95742670" lon="34.94799650">
        <ele>131.00000</ele>
        <time>2010-01-01T00:43:50Z</time>
      </trkpt>
      <trkpt lat="31.95741710" lon="34.94805700">
        <ele>132.00000</ele>
        <time>2010-01-01T00:43:52Z</time>
      </trkpt>
      <trkpt lat="31.95743460" lon="34.94812010">
        <ele>132.00000</ele>
        <time>2010-01-01T00:43:54Z</time>
      </trkpt>
      <trkpt lat="31.95746160" lon="34.94810660">
        <ele>132.00000</ele>
        <time>2010-01-01T00:43:56Z</time>
      </trkpt>
      <trkpt lat="31.95744770" lon="34.94809660">
        <ele>132.00000</ele>
        <time>2010-01-01T00:43:56Z</time>
      </trkpt>
      <trkpt lat="31.95746160" lon="34.94807870">
        <ele>132.00000</ele>
        <time>2010-01-01T00:43:57Z</time>
      </trkpt>
      <trkpt lat="31.95748970" lon="34.94807520">
        <ele>132.00000</ele>
        <time>2010-01-01T00:43:58Z</time>
      </trkpt>
      <trkpt lat="31.95749540" lon="34.94809800">
        <ele>132.00000</ele>
        <time>2010-01-01T00:43:59Z</time>
      </trkpt>
      <trkpt lat="31.95755610" lon="34.94810920">
        <ele>132.00000</ele>
        <time>2010-01-01T00:44:01Z</time>
      </trkpt>
      <trkpt lat="31.95765730" lon="34.94808720">
        <ele>130.00000</ele>
        <time>2010-01-01T00:44:06Z</time>
      </trkpt>
      <trkpt lat="31.95773410" lon="34.94809990">
        <ele>130.00000</ele>
        <time>2010-01-01T00:44:09Z</time>
      </trkpt>
      <trkpt lat="31.95785810" lon="34.94822760">
        <ele>129.00000</ele>
        <time>2010-01-01T00:44:15Z</time>
      </trkpt>
      <trkpt lat="31.95787620" lon="34.94829090">
        <ele>129.00000</ele>
        <time>2010-01-01T00:44:18Z</time>
      </trkpt>
      <trkpt lat="31.95788280" lon="34.94840930">
        <ele>128.00000</ele>
        <time>2010-01-01T00:44:22Z</time>
      </trkpt>
      <trkpt lat="31.95786340" lon="34.94852680">
        <ele>128.00000</ele>
        <time>2010-01-01T00:44:26Z</time>
      </trkpt>
      <trkpt lat="31.95784560" lon="34.94858300">
        <ele>128.00000</ele>
        <time>2010-01-01T00:44:28Z</time>
      </trkpt>
      <trkpt lat="31.95776780" lon="34.94869750">
        <ele>128.00000</ele>
        <time>2010-01-01T00:44:33Z</time>
      </trkpt>
      <trkpt lat="31.95776410" lon="34.94882300">
        <ele>127.00000</ele>
        <time>2010-01-01T00:44:37Z</time>
      </trkpt>
      <trkpt lat="31.95778850" lon="34.94890090">
        <ele>126.00000</ele>
        <time>2010-01-01T00:44:40Z</time>
      </trkpt>
      <trkpt lat="31.95778310" lon="34.94895690">
        <ele>126.00000</ele>
        <time>2010-01-01T00:44:42Z</time>
      </trkpt>
      <trkpt lat="31.95769550" lon="34.94931130">
        <ele>124.00000</ele>
        <time>2010-01-01T00:44:54Z</time>
      </trkpt>
      <trkpt lat="31.95758640" lon="34.94948790">
        <ele>124.00000</ele>
        <time>2010-01-01T00:45:02Z</time>
      </trkpt>
      <trkpt lat="31.95749860" lon="34.94953270">
        <ele>125.00000</ele>
        <time>2010-01-01T00:45:05Z</time>
      </trkpt>
      <trkpt lat="31.95743840" lon="34.94959410">
        <ele>125.00000</ele>
        <time>2010-01-01T00:45:09Z</time>
      </trkpt>
      <trkpt lat="31.95733990" lon="34.94977490">
        <ele>123.00000</ele>
        <time>2010-01-01T00:45:16Z</time>
      </trkpt>
      <trkpt lat="31.95730670" lon="34.94978410">
        <ele>123.00000</ele>
        <time>2010-01-01T00:45:17Z</time>
      </trkpt>
      <trkpt lat="31.95724310" lon="34.94985510">
        <ele>123.00000</ele>
        <time>2010-01-01T00:45:21Z</time>
      </trkpt>
      <trkpt lat="31.95713680" lon="34.94991950">
        <ele>123.00000</ele>
        <time>2010-01-01T00:45:26Z</time>
      </trkpt>
      <trkpt lat="31.95696020" lon="34.94999770">
        <ele>124.00000</ele>
        <time>2010-01-01T00:45:33Z</time>
      </trkpt>
      <trkpt lat="31.95689540" lon="34.95006620">
        <ele>124.00000</ele>
        <time>2010-01-01T00:45:37Z</time>
      </trkpt>
      <trkpt lat="31.95675230" lon="34.95009400">
        <ele>125.00000</ele>
        <time>2010-01-01T00:45:42Z</time>
      </trkpt>
      <trkpt lat="31.95657790" lon="34.95024460">
        <ele>127.00000</ele>
        <time>2010-01-01T00:45:51Z</time>
      </trkpt>
      <trkpt lat="31.95651020" lon="34.95035240">
        <ele>127.00000</ele>
        <time>2010-01-01T00:45:56Z</time>
      </trkpt>
      <trkpt lat="31.95649650" lon="34.95052120">
        <ele>127.00000</ele>
        <time>2010-01-01T00:46:01Z</time>
      </trkpt>
      <trkpt lat="31.95642740" lon="34.95056980">
        <ele>127.00000</ele>
        <time>2010-01-01T00:46:05Z</time>
      </trkpt>
      <trkpt lat="31.95639870" lon="34.95070950">
        <ele>127.00000</ele>
        <time>2010-01-01T00:46:09Z</time>
      </trkpt>
      <trkpt lat="31.95635440" lon="34.95082120">
        <ele>128.00000</ele>
        <time>2010-01-01T00:46:14Z</time>
      </trkpt>
      <trkpt lat="31.95635800" lon="34.95088450">
        <ele>128.00000</ele>
        <time>2010-01-01T00:46:16Z</time>
      </trkpt>
      <trkpt lat="31.95631630" lon="34.95087860">
        <ele>128.00000</ele>
        <time>2010-01-01T00:46:18Z</time>
      </trkpt>
      <trkpt lat="31.95632130" lon="34.95088640">
        <ele>128.00000</ele>
        <time>2010-01-01T00:46:18Z</time>
      </trkpt>
      <trkpt lat="31.95634050" lon="34.95086740">
        <ele>128.00000</ele>
        <time>2010-01-01T00:46:19Z</time>
      </trkpt>
      <trkpt lat="31.95632380" lon="34.95086370">
        <ele>128.00000</ele>
        <time>2010-01-01T00:46:20Z</time>
      </trkpt>
      <trkpt lat="31.95633340" lon="34.95088440">
        <ele>128.00000</ele>
        <time>2010-01-01T00:46:20Z</time>
      </trkpt>
      <trkpt lat="31.95632020" lon="34.95089980">
        <ele>128.00000</ele>
        <time>2010-01-01T00:46:21Z</time>
      </trkpt>
      <trkpt lat="31.95634940" lon="34.95093500">
        <ele>128.00000</ele>
        <time>2010-01-01T00:46:23Z</time>
      </trkpt>
      <trkpt lat="31.95643840" lon="34.95094560">
        <ele>128.00000</ele>
        <time>2010-01-01T00:46:26Z</time>
      </trkpt>
      <trkpt lat="31.95659780" lon="34.95105640">
        <ele>128.00000</ele>
        <time>2010-01-01T00:46:34Z</time>
      </trkpt>
      <trkpt lat="31.95674510" lon="34.95119600">
        <ele>129.00000</ele>
        <time>2010-01-01T00:46:41Z</time>
      </trkpt>
      <trkpt lat="31.95716370" lon="34.95132950">
        <ele>129.00000</ele>
        <time>2010-01-01T00:46:59Z</time>
      </trkpt>
      <trkpt lat="31.95739460" lon="34.95135520">
        <ele>129.00000</ele>
        <time>2010-01-01T00:47:08Z</time>
      </trkpt>
      <trkpt lat="31.95748890" lon="34.95140720">
        <ele>129.00000</ele>
        <time>2010-01-01T00:47:12Z</time>
      </trkpt>
      <trkpt lat="31.95761070" lon="34.95136130">
        <ele>129.00000</ele>
        <time>2010-01-01T00:47:17Z</time>
      </trkpt>
      <trkpt lat="31.95763280" lon="34.95133330">
        <ele>128.00000</ele>
        <time>2010-01-01T00:47:19Z</time>
      </trkpt>
      <trkpt lat="31.95768680" lon="34.95131260">
        <ele>128.00000</ele>
        <time>2010-01-01T00:47:21Z</time>
      </trkpt>
      <trkpt lat="31.95782160" lon="34.95131820">
        <ele>129.00000</ele>
        <time>2010-01-01T00:47:26Z</time>
      </trkpt>
      <trkpt lat="31.95789470" lon="34.95133820">
        <ele>129.00000</ele>
        <time>2010-01-01T00:47:29Z</time>
      </trkpt>
      <trkpt lat="31.95792230" lon="34.95148060">
        <ele>130.00000</ele>
        <time>2010-01-01T00:47:34Z</time>
      </trkpt>
      <trkpt lat="31.95792470" lon="34.95169920">
        <ele>132.00000</ele>
        <time>2010-01-01T00:47:42Z</time>
      </trkpt>
      <trkpt lat="31.95798470" lon="34.95185250">
        <ele>133.00000</ele>
        <time>2010-01-01T00:47:47Z</time>
      </trkpt>
      <trkpt lat="31.95801310" lon="34.95197370">
        <ele>133.00000</ele>
        <time>2010-01-01T00:47:52Z</time>
      </trkpt>
      <trkpt lat="31.95795120" lon="34.95214630">
        <ele>134.00000</ele>
        <time>2010-01-01T00:47:58Z</time>
      </trkpt>
      <trkpt lat="31.95793120" lon="34.95234640">
        <ele>134.00000</ele>
        <time>2010-01-01T00:48:05Z</time>
      </trkpt>
      <trkpt lat="31.95793700" lon="34.95247070">
        <ele>135.00000</ele>
        <time>2010-01-01T00:48:09Z</time>
      </trkpt>
      <trkpt lat="31.95792780" lon="34.95255750">
        <ele>135.00000</ele>
        <time>2010-01-01T00:48:12Z</time>
      </trkpt>
      <trkpt lat="31.95790660" lon="34.95261120">
        <ele>135.00000</ele>
        <time>2010-01-01T00:48:14Z</time>
      </trkpt>
      <trkpt lat="31.95790660" lon="34.95270000">
        <ele>134.00000</ele>
        <time>2010-01-01T00:48:17Z</time>
      </trkpt>
      <trkpt lat="31.95785040" lon="34.95281280">
        <ele>134.00000</ele>
        <time>2010-01-01T00:48:21Z</time>
      </trkpt>
      <trkpt lat="31.95783330" lon="34.95291110">
        <ele>134.00000</ele>
        <time>2010-01-01T00:48:25Z</time>
      </trkpt>
      <trkpt lat="31.95779220" lon="34.95297500">
        <ele>134.00000</ele>
        <time>2010-01-01T00:48:28Z</time>
      </trkpt>
      <trkpt lat="31.95784970" lon="34.95333660">
        <ele>133.00000</ele>
        <time>2010-01-01T00:48:40Z</time>
      </trkpt>
      <trkpt lat="31.95795510" lon="34.95355750">
        <ele>132.00000</ele>
        <time>2010-01-01T00:48:49Z</time>
      </trkpt>
      <trkpt lat="31.95797920" lon="34.95379930">
        <ele>131.00000</ele>
        <time>2010-01-01T00:48:57Z</time>
      </trkpt>
      <trkpt lat="31.95797330" lon="34.95387630">
        <ele>131.00000</ele>
        <time>2010-01-01T00:49:00Z</time>
      </trkpt>
      <trkpt lat="31.95790130" lon="34.95400620">
        <ele>131.00000</ele>
        <time>2010-01-01T00:49:05Z</time>
      </trkpt>
      <trkpt lat="31.95785940" lon="34.95404530">
        <ele>132.00000</ele>
        <time>2010-01-01T00:49:07Z</time>
      </trkpt>
      <trkpt lat="31.95781650" lon="34.95406150">
        <ele>132.00000</ele>
        <time>2010-01-01T00:49:09Z</time>
      </trkpt>
      <trkpt lat="31.95779520" lon="34.95410070">
        <ele>132.00000</ele>
        <time>2010-01-01T00:49:10Z</time>
      </trkpt>
      <trkpt lat="31.95768770" lon="34.95415790">
        <ele>132.00000</ele>
        <time>2010-01-01T00:49:15Z</time>
      </trkpt>
      <trkpt lat="31.95753100" lon="34.95416920">
        <ele>133.00000</ele>
        <time>2010-01-01T00:49:21Z</time>
      </trkpt>
      <trkpt lat="31.95744040" lon="34.95413900">
        <ele>133.00000</ele>
        <time>2010-01-01T00:49:25Z</time>
      </trkpt>
      <trkpt lat="31.95736490" lon="34.95414320">
        <ele>134.00000</ele>
        <time>2010-01-01T00:49:28Z</time>
      </trkpt>
      <trkpt lat="31.95729270" lon="34.95412210">
        <ele>134.00000</ele>
        <time>2010-01-01T00:49:31Z</time>
      </trkpt>
      <trkpt lat="31.95722400" lon="34.95412120">
        <ele>134.00000</ele>
        <time>2010-01-01T00:49:34Z</time>
      </trkpt>
      <trkpt lat="31.95713210" lon="34.95408900">
        <ele>135.00000</ele>
        <time>2010-01-01T00:49:38Z</time>
      </trkpt>
      <trkpt lat="31.95711830" lon="34.95406790">
        <ele>135.00000</ele>
        <time>2010-01-01T00:49:39Z</time>
      </trkpt>
      <trkpt lat="31.95707300" lon="34.95405980">
        <ele>135.00000</ele>
        <time>2010-01-01T00:49:40Z</time>
      </trkpt>
      <trkpt lat="31.95684780" lon="34.95407380">
        <ele>136.00000</ele>
        <time>2010-01-01T00:49:50Z</time>
      </trkpt>
      <trkpt lat="31.95673140" lon="34.95402500">
        <ele>137.00000</ele>
        <time>2010-01-01T00:49:54Z</time>
      </trkpt>
      <trkpt lat="31.95670920" lon="34.95401060">
        <ele>137.00000</ele>
        <time>2010-01-01T00:49:55Z</time>
      </trkpt>
      <trkpt lat="31.95670380" lon="34.95397240">
        <ele>138.00000</ele>
        <time>2010-01-01T00:49:57Z</time>
      </trkpt>
      <trkpt lat="31.95688830" lon="34.95382260">
        <ele>137.00000</ele>
        <time>2010-01-01T00:50:06Z</time>
      </trkpt>
      <trkpt lat="31.95695650" lon="34.95374320">
        <ele>137.00000</ele>
        <time>2010-01-01T00:50:10Z</time>
      </trkpt>
      <trkpt lat="31.95696230" lon="34.95369300">
        <ele>137.00000</ele>
        <time>2010-01-01T00:50:11Z</time>
      </trkpt>
      <trkpt lat="31.95693600" lon="34.95367010">
        <ele>137.00000</ele>
        <time>2010-01-01T00:50:13Z</time>
      </trkpt>
      <trkpt lat="31.95680680" lon="34.95370000">
        <ele>138.00000</ele>
        <time>2010-01-01T00:50:18Z</time>
      </trkpt>
      <trkpt lat="31.95654290" lon="34.95369650">
        <ele>139.00000</ele>
        <time>2010-01-01T00:50:28Z</time>
      </trkpt>
      <trkpt lat="31.95622980" lon="34.95375160">
        <ele>141.00000</ele>
        <time>2010-01-01T00:50:41Z</time>
      </trkpt>
      <trkpt lat="31.95613760" lon="34.95378410">
        <ele>141.00000</ele>
        <time>2010-01-01T00:50:45Z</time>
      </trkpt>
      <trkpt lat="31.95607620" lon="34.95382260">
        <ele>142.00000</ele>
        <time>2010-01-01T00:50:48Z</time>
      </trkpt>
      <trkpt lat="31.95597600" lon="34.95394430">
        <ele>142.00000</ele>
        <time>2010-01-01T00:50:54Z</time>
      </trkpt>
      <trkpt lat="31.95579210" lon="34.95407580">
        <ele>143.00000</ele>
        <time>2010-01-01T00:51:02Z</time>
      </trkpt>
      <trkpt lat="31.95574390" lon="34.95409580">
        <ele>144.00000</ele>
        <time>2010-01-01T00:51:04Z</time>
      </trkpt>
      <trkpt lat="31.95565950" lon="34.95410760">
        <ele>145.00000</ele>
        <time>2010-01-01T00:51:08Z</time>
      </trkpt>
      <trkpt lat="31.95543680" lon="34.95402430">
        <ele>147.00000</ele>
        <time>2010-01-01T00:51:17Z</time>
      </trkpt>
      <trkpt lat="31.95521520" lon="34.95430690">
        <ele>148.00000</ele>
        <time>2010-01-01T00:51:30Z</time>
      </trkpt>
      <trkpt lat="31.95516060" lon="34.95436200">
        <ele>149.00000</ele>
        <time>2010-01-01T00:51:33Z</time>
      </trkpt>
      <trkpt lat="31.95512230" lon="34.95437730">
        <ele>149.00000</ele>
        <time>2010-01-01T00:51:35Z</time>
      </trkpt>
      <trkpt lat="31.95500000" lon="34.95451930">
        <ele>150.00000</ele>
        <time>2010-01-01T00:51:41Z</time>
      </trkpt>
      <trkpt lat="31.95494810" lon="34.95455910">
        <ele>150.00000</ele>
        <time>2010-01-01T00:51:44Z</time>
      </trkpt>
      <trkpt lat="31.95480300" lon="34.95457620">
        <ele>151.00000</ele>
        <time>2010-01-01T00:51:50Z</time>
      </trkpt>
      <trkpt lat="31.95471620" lon="34.95456470">
        <ele>151.00000</ele>
        <time>2010-01-01T00:51:53Z</time>
      </trkpt>
      <trkpt lat="31.95462710" lon="34.95458110">
        <ele>152.00000</ele>
        <time>2010-01-01T00:51:57Z</time>
      </trkpt>
      <trkpt lat="31.95455740" lon="34.95456880">
        <ele>152.00000</ele>
        <time>2010-01-01T00:52:00Z</time>
      </trkpt>
      <trkpt lat="31.95436520" lon="34.95457190">
        <ele>153.00000</ele>
        <time>2010-01-01T00:52:07Z</time>
      </trkpt>
      <trkpt lat="31.95410620" lon="34.95452260">
        <ele>154.00000</ele>
        <time>2010-01-01T00:52:18Z</time>
      </trkpt>
      <trkpt lat="31.95403600" lon="34.95449680">
        <ele>154.00000</ele>
        <time>2010-01-01T00:52:21Z</time>
      </trkpt>
      <trkpt lat="31.95396040" lon="34.95449430">
        <ele>154.00000</ele>
        <time>2010-01-01T00:52:24Z</time>
      </trkpt>
      <trkpt lat="31.95390860" lon="34.95446790">
        <ele>154.00000</ele>
        <time>2010-01-01T00:52:26Z</time>
      </trkpt>
      <trkpt lat="31.95383140" lon="34.95449400">
        <ele>154.00000</ele>
        <time>2010-01-01T00:52:29Z</time>
      </trkpt>
      <trkpt lat="31.95376600" lon="34.95449230">
        <ele>154.00000</ele>
        <time>2010-01-01T00:52:32Z</time>
      </trkpt>
      <trkpt lat="31.95369050" lon="34.95454060">
        <ele>154.00000</ele>
        <time>2010-01-01T00:52:35Z</time>
      </trkpt>
      <trkpt lat="31.95361640" lon="34.95465450">
        <ele>154.00000</ele>
        <time>2010-01-01T00:52:40Z</time>
      </trkpt>
      <trkpt lat="31.95355630" lon="34.95478050">
        <ele>155.00000</ele>
        <time>2010-01-01T00:52:45Z</time>
      </trkpt>
      <trkpt lat="31.95354280" lon="34.95486340">
        <ele>155.00000</ele>
        <time>2010-01-01T00:52:48Z</time>
      </trkpt>
      <trkpt lat="31.95352600" lon="34.95487950">
        <ele>155.00000</ele>
        <time>2010-01-01T00:52:49Z</time>
      </trkpt>
      <trkpt lat="31.95352880" lon="34.95491560">
        <ele>155.00000</ele>
        <time>2010-01-01T00:52:50Z</time>
      </trkpt>
      <trkpt lat="31.95358430" lon="34.95496260">
        <ele>155.00000</ele>
        <time>2010-01-01T00:52:53Z</time>
      </trkpt>
      <trkpt lat="31.95356100" lon="34.95507720">
        <ele>155.00000</ele>
        <time>2010-01-01T00:52:57Z</time>
      </trkpt>
      <trkpt lat="31.95356840" lon="34.95510010">
        <ele>156.00000</ele>
        <time>2010-01-01T00:52:58Z</time>
      </trkpt>
      <trkpt lat="31.95352820" lon="34.95511280">
        <ele>156.00000</ele>
        <time>2010-01-01T00:52:59Z</time>
      </trkpt>
      <trkpt lat="31.95352790" lon="34.95520810">
        <ele>157.00000</ele>
        <time>2010-01-01T00:53:03Z</time>
      </trkpt>
      <trkpt lat="31.95342020" lon="34.95547450">
        <ele>159.00000</ele>
        <time>2010-01-01T00:53:13Z</time>
      </trkpt>
      <trkpt lat="31.95340740" lon="34.95556870">
        <ele>160.00000</ele>
        <time>2010-01-01T00:53:16Z</time>
      </trkpt>
      <trkpt lat="31.95344880" lon="34.95567130">
        <ele>161.00000</ele>
        <time>2010-01-01T00:53:20Z</time>
      </trkpt>
      <trkpt lat="31.95364870" lon="34.95570870">
        <ele>161.00000</ele>
        <time>2010-01-01T00:53:28Z</time>
      </trkpt>
      <trkpt lat="31.95374390" lon="34.95570590">
        <ele>161.00000</ele>
        <time>2010-01-01T00:53:32Z</time>
      </trkpt>
      <trkpt lat="31.95379630" lon="34.95573320">
        <ele>161.00000</ele>
        <time>2010-01-01T00:53:34Z</time>
      </trkpt>
      <trkpt lat="31.95386100" lon="34.95581730">
        <ele>162.00000</ele>
        <time>2010-01-01T00:53:38Z</time>
      </trkpt>
      <trkpt lat="31.95390240" lon="34.95597550">
        <ele>162.00000</ele>
        <time>2010-01-01T00:53:43Z</time>
      </trkpt>
      <trkpt lat="31.95391170" lon="34.95609740">
        <ele>163.00000</ele>
        <time>2010-01-01T00:53:48Z</time>
      </trkpt>
      <trkpt lat="31.95386350" lon="34.95634700">
        <ele>164.00000</ele>
        <time>2010-01-01T00:53:56Z</time>
      </trkpt>
      <trkpt lat="31.95387360" lon="34.95648710">
        <ele>165.00000</ele>
        <time>2010-01-01T00:54:01Z</time>
      </trkpt>
      <trkpt lat="31.95391170" lon="34.95667660">
        <ele>166.00000</ele>
        <time>2010-01-01T00:54:08Z</time>
      </trkpt>
      <trkpt lat="31.95390830" lon="34.95674770">
        <ele>166.00000</ele>
        <time>2010-01-01T00:54:10Z</time>
      </trkpt>
      <trkpt lat="31.95380110" lon="34.95707530">
        <ele>170.00000</ele>
        <time>2010-01-01T00:54:22Z</time>
      </trkpt>
      <trkpt lat="31.95377650" lon="34.95719380">
        <ele>171.00000</ele>
        <time>2010-01-01T00:54:26Z</time>
      </trkpt>
      <trkpt lat="31.95378430" lon="34.95738430">
        <ele>172.00000</ele>
        <time>2010-01-01T00:54:33Z</time>
      </trkpt>
      <trkpt lat="31.95382280" lon="34.95757770">
        <ele>173.00000</ele>
        <time>2010-01-01T00:54:39Z</time>
      </trkpt>
      <trkpt lat="31.95382280" lon="34.95767290">
        <ele>174.00000</ele>
        <time>2010-01-01T00:54:43Z</time>
      </trkpt>
      <trkpt lat="31.95380720" lon="34.95772950">
        <ele>174.00000</ele>
        <time>2010-01-01T00:54:45Z</time>
      </trkpt>
      <trkpt lat="31.95384120" lon="34.95808590">
        <ele>176.00000</ele>
        <time>2010-01-01T00:54:57Z</time>
      </trkpt>
      <trkpt lat="31.95382590" lon="34.95814180">
        <ele>177.00000</ele>
        <time>2010-01-01T00:54:59Z</time>
      </trkpt>
      <trkpt lat="31.95378110" lon="34.95818260">
        <ele>177.00000</ele>
        <time>2010-01-01T00:55:01Z</time>
      </trkpt>
      <trkpt lat="31.95367570" lon="34.95821700">
        <ele>178.00000</ele>
        <time>2010-01-01T00:55:05Z</time>
      </trkpt>
      <trkpt lat="31.95334240" lon="34.95822200">
        <ele>179.00000</ele>
        <time>2010-01-01T00:55:19Z</time>
      </trkpt>
      <trkpt lat="31.95329550" lon="34.95820990">
        <ele>180.00000</ele>
        <time>2010-01-01T00:55:21Z</time>
      </trkpt>
      <trkpt lat="31.95324090" lon="34.95817190">
        <ele>179.00000</ele>
        <time>2010-01-01T00:55:23Z</time>
      </trkpt>
      <trkpt lat="31.95312150" lon="34.95813600">
        <ele>180.00000</ele>
        <time>2010-01-01T00:55:28Z</time>
      </trkpt>
      <trkpt lat="31.95309650" lon="34.95809040">
        <ele>179.00000</ele>
        <time>2010-01-01T00:55:30Z</time>
      </trkpt>
      <trkpt lat="31.95297310" lon="34.95813860">
        <ele>180.00000</ele>
        <time>2010-01-01T00:55:35Z</time>
      </trkpt>
      <trkpt lat="31.95279260" lon="34.95817310">
        <ele>181.00000</ele>
        <time>2010-01-01T00:55:42Z</time>
      </trkpt>
      <trkpt lat="31.95267110" lon="34.95821400">
        <ele>181.00000</ele>
        <time>2010-01-01T00:55:48Z</time>
      </trkpt>
      <trkpt lat="31.95256320" lon="34.95820710">
        <ele>182.00000</ele>
        <time>2010-01-01T00:55:52Z</time>
      </trkpt>
      <trkpt lat="31.95245090" lon="34.95821960">
        <ele>182.00000</ele>
        <time>2010-01-01T00:55:56Z</time>
      </trkpt>
      <trkpt lat="31.95230380" lon="34.95817980">
        <ele>181.00000</ele>
        <time>2010-01-01T00:56:02Z</time>
      </trkpt>
      <trkpt lat="31.95219070" lon="34.95819150">
        <ele>182.00000</ele>
        <time>2010-01-01T00:56:07Z</time>
      </trkpt>
      <trkpt lat="31.95209550" lon="34.95824810">
        <ele>182.00000</ele>
        <time>2010-01-01T00:56:11Z</time>
      </trkpt>
      <trkpt lat="31.95205450" lon="34.95831750">
        <ele>183.00000</ele>
        <time>2010-01-01T00:56:14Z</time>
      </trkpt>
      <trkpt lat="31.95193910" lon="34.95832790">
        <ele>183.00000</ele>
        <time>2010-01-01T00:56:19Z</time>
      </trkpt>
      <trkpt lat="31.95191930" lon="34.95839490">
        <ele>183.00000</ele>
        <time>2010-01-01T00:56:21Z</time>
      </trkpt>
      <trkpt lat="31.95186400" lon="34.95846600">
        <ele>183.00000</ele>
        <time>2010-01-01T00:56:24Z</time>
      </trkpt>
      <trkpt lat="31.95186660" lon="34.95852080">
        <ele>183.00000</ele>
        <time>2010-01-01T00:56:26Z</time>
      </trkpt>
      <trkpt lat="31.95183520" lon="34.95854300">
        <ele>183.00000</ele>
        <time>2010-01-01T00:56:28Z</time>
      </trkpt>
      <trkpt lat="31.95174060" lon="34.95855400">
        <ele>183.00000</ele>
        <time>2010-01-01T00:56:32Z</time>
      </trkpt>
      <trkpt lat="31.95171530" lon="34.95857480">
        <ele>183.00000</ele>
        <time>2010-01-01T00:56:33Z</time>
      </trkpt>
      <trkpt lat="31.95172960" lon="34.95867430">
        <ele>183.00000</ele>
        <time>2010-01-01T00:56:36Z</time>
      </trkpt>
      <trkpt lat="31.95184680" lon="34.95877630">
        <ele>183.00000</ele>
        <time>2010-01-01T00:56:42Z</time>
      </trkpt>
      <trkpt lat="31.95193850" lon="34.95881330">
        <ele>183.00000</ele>
        <time>2010-01-01T00:56:46Z</time>
      </trkpt>
      <trkpt lat="31.95191640" lon="34.95885680">
        <ele>183.00000</ele>
        <time>2010-01-01T00:56:48Z</time>
      </trkpt>
      <trkpt lat="31.95193600" lon="34.95888540">
        <ele>183.00000</ele>
        <time>2010-01-01T00:56:49Z</time>
      </trkpt>
      <trkpt lat="31.95208210" lon="34.95898250">
        <ele>184.00000</ele>
        <time>2010-01-01T00:56:56Z</time>
      </trkpt>
      <trkpt lat="31.95224510" lon="34.95902680">
        <ele>185.00000</ele>
        <time>2010-01-01T00:57:02Z</time>
      </trkpt>
      <trkpt lat="31.95235220" lon="34.95910800">
        <ele>186.00000</ele>
        <time>2010-01-01T00:57:07Z</time>
      </trkpt>
      <trkpt lat="31.95236080" lon="34.95913680">
        <ele>186.00000</ele>
        <time>2010-01-01T00:57:08Z</time>
      </trkpt>
      <trkpt lat="31.95234970" lon="34.95916710">
        <ele>186.00000</ele>
        <time>2010-01-01T00:57:10Z</time>
      </trkpt>
      <trkpt lat="31.95225260" lon="34.95917260">
        <ele>185.00000</ele>
        <time>2010-01-01T00:57:13Z</time>
      </trkpt>
      <trkpt lat="31.95216820" lon="34.95921850">
        <ele>184.00000</ele>
        <time>2010-01-01T00:57:17Z</time>
      </trkpt>
      <trkpt lat="31.95213980" lon="34.95924640">
        <ele>184.00000</ele>
        <time>2010-01-01T00:57:19Z</time>
      </trkpt>
      <trkpt lat="31.95212040" lon="34.95932720">
        <ele>182.00000</ele>
        <time>2010-01-01T00:57:22Z</time>
      </trkpt>
      <trkpt lat="31.95212470" lon="34.95936870">
        <ele>181.00000</ele>
        <time>2010-01-01T00:57:23Z</time>
      </trkpt>
      <trkpt lat="31.95227420" lon="34.95956160">
        <ele>179.00000</ele>
        <time>2010-01-01T00:57:32Z</time>
      </trkpt>
      <trkpt lat="31.95230640" lon="34.95964860">
        <ele>178.00000</ele>
        <time>2010-01-01T00:57:35Z</time>
      </trkpt>
      <trkpt lat="31.95233110" lon="34.95979360">
        <ele>176.00000</ele>
        <time>2010-01-01T00:57:40Z</time>
      </trkpt>
      <trkpt lat="31.95231350" lon="34.95997840">
        <ele>173.00000</ele>
        <time>2010-01-01T00:57:46Z</time>
      </trkpt>
      <trkpt lat="31.95221830" lon="34.96015270">
        <ele>170.00000</ele>
        <time>2010-01-01T00:57:53Z</time>
      </trkpt>
      <trkpt lat="31.95209340" lon="34.96026930">
        <ele>167.00000</ele>
        <time>2010-01-01T00:58:00Z</time>
      </trkpt>
      <trkpt lat="31.95197000" lon="34.96045530">
        <ele>164.00000</ele>
        <time>2010-01-01T00:58:08Z</time>
      </trkpt>
      <trkpt lat="31.95190120" lon="34.96062020">
        <ele>162.00000</ele>
        <time>2010-01-01T00:58:14Z</time>
      </trkpt>
      <trkpt lat="31.95183620" lon="34.96072980">
        <ele>161.00000</ele>
        <time>2010-01-01T00:58:19Z</time>
      </trkpt>
      <trkpt lat="31.95175880" lon="34.96099780">
        <ele>158.00000</ele>
        <time>2010-01-01T00:58:28Z</time>
      </trkpt>
      <trkpt lat="31.95174070" lon="34.96102220">
        <ele>157.00000</ele>
        <time>2010-01-01T00:58:29Z</time>
      </trkpt>
      <trkpt lat="31.95168400" lon="34.96104900">
        <ele>157.00000</ele>
        <time>2010-01-01T00:58:32Z</time>
      </trkpt>
      <trkpt lat="31.95161630" lon="34.96111940">
        <ele>157.00000</ele>
        <time>2010-01-01T00:58:35Z</time>
      </trkpt>
      <trkpt lat="31.95159930" lon="34.96117250">
        <ele>156.00000</ele>
        <time>2010-01-01T00:58:37Z</time>
      </trkpt>
      <trkpt lat="31.95142330" lon="34.96132760">
        <ele>156.00000</ele>
        <time>2010-01-01T00:58:46Z</time>
      </trkpt>
      <trkpt lat="31.95130300" lon="34.96150490">
        <ele>155.00000</ele>
        <time>2010-01-01T00:58:54Z</time>
      </trkpt>
      <trkpt lat="31.95112630" lon="34.96155760">
        <ele>156.00000</ele>
        <time>2010-01-01T00:59:01Z</time>
      </trkpt>
      <trkpt lat="31.95102440" lon="34.96164820">
        <ele>157.00000</ele>
        <time>2010-01-01T00:59:06Z</time>
      </trkpt>
      <trkpt lat="31.95092990" lon="34.96170230">
        <ele>157.00000</ele>
        <time>2010-01-01T00:59:10Z</time>
      </trkpt>
      <trkpt lat="31.95083930" lon="34.96171960">
        <ele>158.00000</ele>
        <time>2010-01-01T00:59:14Z</time>
      </trkpt>
      <trkpt lat="31.95076080" lon="34.96170050">
        <ele>159.00000</ele>
        <time>2010-01-01T00:59:17Z</time>
      </trkpt>
      <trkpt lat="31.95070910" lon="34.96166350">
        <ele>159.00000</ele>
        <time>2010-01-01T00:59:20Z</time>
      </trkpt>
      <trkpt lat="31.95050480" lon="34.96166720">
        <ele>160.00000</ele>
        <time>2010-01-01T00:59:28Z</time>
      </trkpt>
      <trkpt lat="31.95031500" lon="34.96171870">
        <ele>160.00000</ele>
        <time>2010-01-01T00:59:36Z</time>
      </trkpt>
      <trkpt lat="31.95020130" lon="34.96178740">
        <ele>160.00000</ele>
        <time>2010-01-01T00:59:41Z</time>
      </trkpt>
      <trkpt lat="31.95017480" lon="34.96185800">
        <ele>159.00000</ele>
        <time>2010-01-01T00:59:43Z</time>
      </trkpt>
      <trkpt lat="31.95013480" lon="34.96187970">
        <ele>159.00000</ele>
        <time>2010-01-01T00:59:45Z</time>
      </trkpt>
      <trkpt lat="31.94994260" lon="34.96213310">
        <ele>158.00000</ele>
        <time>2010-01-01T00:59:57Z</time>
      </trkpt>
      <trkpt lat="31.94971520" lon="34.96265720">
        <ele>154.00000</ele>
        <time>2010-01-01T01:00:17Z</time>
      </trkpt>
      <trkpt lat="31.94966070" lon="34.96270520">
        <ele>154.00000</ele>
        <time>2010-01-01T01:00:19Z</time>
      </trkpt>
      <trkpt lat="31.94950480" lon="34.96278380">
        <ele>154.00000</ele>
        <time>2010-01-01T01:00:26Z</time>
      </trkpt>
      <trkpt lat="31.94947670" lon="34.96282200">
        <ele>154.00000</ele>
        <time>2010-01-01T01:00:28Z</time>
      </trkpt>
      <trkpt lat="31.94941970" lon="34.96296390">
        <ele>154.00000</ele>
        <time>2010-01-01T01:00:33Z</time>
      </trkpt>
      <trkpt lat="31.94936770" lon="34.96303590">
        <ele>154.00000</ele>
        <time>2010-01-01T01:00:37Z</time>
      </trkpt>
      <trkpt lat="31.94936150" lon="34.96308270">
        <ele>153.00000</ele>
        <time>2010-01-01T01:00:38Z</time>
      </trkpt>
      <trkpt lat="31.94938070" lon="34.96316120">
        <ele>153.00000</ele>
        <time>2010-01-01T01:00:41Z</time>
      </trkpt>
      <trkpt lat="31.94937520" lon="34.96336260">
        <ele>152.00000</ele>
        <time>2010-01-01T01:00:48Z</time>
      </trkpt>
      <trkpt lat="31.94929930" lon="34.96354940">
        <ele>151.00000</ele>
        <time>2010-01-01T01:00:55Z</time>
      </trkpt>
      <trkpt lat="31.94922060" lon="34.96385010">
        <ele>150.00000</ele>
        <time>2010-01-01T01:01:05Z</time>
      </trkpt>
      <trkpt lat="31.94923430" lon="34.96401160">
        <ele>148.00000</ele>
        <time>2010-01-01T01:01:11Z</time>
      </trkpt>
      <trkpt lat="31.94922260" lon="34.96412820">
        <ele>148.00000</ele>
        <time>2010-01-01T01:01:15Z</time>
      </trkpt>
      <trkpt lat="31.94924030" lon="34.96428780">
        <ele>147.00000</ele>
        <time>2010-01-01T01:01:20Z</time>
      </trkpt>
      <trkpt lat="31.94923750" lon="34.96445990">
        <ele>147.00000</ele>
        <time>2010-01-01T01:01:26Z</time>
      </trkpt>
      <trkpt lat="31.94925840" lon="34.96473680">
        <ele>147.00000</ele>
        <time>2010-01-01T01:01:36Z</time>
      </trkpt>
      <trkpt lat="31.94930240" lon="34.96482840">
        <ele>147.00000</ele>
        <time>2010-01-01T01:01:39Z</time>
      </trkpt>
      <trkpt lat="31.94936050" lon="34.96486910">
        <ele>147.00000</ele>
        <time>2010-01-01T01:01:42Z</time>
      </trkpt>
      <trkpt lat="31.94951220" lon="34.96493420">
        <ele>146.00000</ele>
        <time>2010-01-01T01:01:48Z</time>
      </trkpt>
      <trkpt lat="31.94969480" lon="34.96493750">
        <ele>145.00000</ele>
        <time>2010-01-01T01:01:56Z</time>
      </trkpt>
      <trkpt lat="31.94982720" lon="34.96496558">
        <ele>145.00000</ele>
        <time>2010-01-01T01:02:01Z</time>
      </trkpt>
      <trkpt lat="31.94994680" lon="34.96511190">
        <ele>146.00000</ele>
        <time>2010-01-01T01:02:08Z</time>
      </trkpt>
      <trkpt lat="31.94998470" lon="34.96513070">
        <ele>146.00000</ele>
        <time>2010-01-01T01:02:10Z</time>
      </trkpt>
      <trkpt lat="31.95001310" lon="34.96511320">
        <ele>146.00000</ele>
        <time>2010-01-01T01:02:11Z</time>
      </trkpt>
    </trkseg>
  </trk>
</gpx>

